PWSweather.com
Personal Weather Stations
Station Observations
PERRYTONTX
Perryton, TX

Perryton, TX

Lat: 36.3746986, Lon: -100.8124008

Elevation: 2940

Station Type: Rainwise 2000

High Low Average
Temperature 74.2°F23.4°C 53.6°F12.0°C 65.2°F18.4°C
Dew Point 52.9°F11.6°C 43.8°F6.6°C 47.9°F8.8°C
Winds 28.6 mph 46.0 kmh 1.3 mph 2.1 kmh 13.0 mph SW20.9 kmh SW
Wind Gusts 34.0 mph54.7 kmh 4.0 mph6.4 kmh 16.0 mph25.7 kmh
Humidity 76% 39% 54%
Pressure 29.91 in1012.9 mb 26.81 in907.9 mb -
Precipitation 0.00 in0.0 mm - -
Hour Temp Dew Point Humidity Winds Wind Gusts Pressure Precip Precip Rate Daily Precip Total
12:00 AM 63.9°F17.7°C 44.9°F7.2°C 50% 10.4 mph S16.7 kmh S 16.0 mph25.7 kmh 29.87 in1011.5 mb 0.00 in0.0 mm 0.00 in/hr0.0 mm/hr 0.00 in0.0 mm
12:02 AM 63.9°F17.7°C 44.9°F7.2°C 50% 11.7 mph SSE18.8 kmh SSE 14.0 mph22.5 kmh 29.87 in1011.5 mb 0.00 in0.0 mm 0.00 in/hr0.0 mm/hr 0.00 in0.0 mm
12:04 AM 63.9°F17.7°C 44.9°F7.2°C 50% 10.4 mph SE16.7 kmh SE 19.0 mph30.6 kmh 29.87 in1011.5 mb 0.00 in0.0 mm 0.00 in/hr0.0 mm/hr 0.00 in0.0 mm
12:06 AM 63.9°F17.7°C 44.9°F7.2°C 50% 11.7 mph SE18.8 kmh SE 16.0 mph25.7 kmh 29.87 in1011.5 mb 0.00 in0.0 mm 0.00 in/hr0.0 mm/hr 0.00 in0.0 mm
12:08 AM 63.9°F17.7°C 44.9°F7.2°C 50% 9.1 mph SE14.6 kmh SE 19.0 mph30.6 kmh 29.87 in1011.5 mb 0.00 in0.0 mm 0.00 in/hr0.0 mm/hr 0.00 in0.0 mm
12:10 AM 63.9°F17.7°C 44.9°F7.2°C 50% 9.1 mph SSW14.6 kmh SSW 15.0 mph24.1 kmh 29.88 in1011.9 mb 0.00 in0.0 mm 0.00 in/hr0.0 mm/hr 0.00 in0.0 mm
12:12 AM 63.9°F17.7°C 44.9°F7.2°C 50% 14.3 mph S23.0 kmh S 17.0 mph27.4 kmh 29.88 in1011.9 mb 0.00 in0.0 mm 0.00 in/hr0.0 mm/hr 0.00 in0.0 mm
12:14 AM 63.9°F17.7°C 44.9°F7.2°C 50% 16.9 mph SSE27.2 kmh SSE 15.0 mph24.1 kmh 29.88 in1011.9 mb 0.00 in0.0 mm 0.00 in/hr0.0 mm/hr 0.00 in0.0 mm
12:16 AM 63.9°F17.7°C 44.9°F7.2°C 50% 14.3 mph SSE23.0 kmh SSE 19.0 mph30.6 kmh 29.88 in1011.9 mb 0.00 in0.0 mm 0.00 in/hr0.0 mm/hr 0.00 in0.0 mm
12:18 AM 63.9°F17.7°C 44.9°F7.2°C 50% 13.0 mph S20.9 kmh S 17.0 mph27.4 kmh 29.88 in1011.9 mb 0.00 in0.0 mm 0.00 in/hr0.0 mm/hr 0.00 in0.0 mm
12:20 AM 63.9°F17.7°C 44.9°F7.2°C 50% 11.7 mph S18.8 kmh S 21.0 mph33.8 kmh 29.88 in1011.9 mb 0.00 in0.0 mm 0.00 in/hr0.0 mm/hr 0.00 in0.0 mm
12:22 AM 63.9°F17.7°C 44.9°F7.2°C 50% 11.7 mph ESE18.8 kmh ESE 20.0 mph32.2 kmh 29.88 in1011.9 mb 0.00 in0.0 mm 0.00 in/hr0.0 mm/hr 0.00 in0.0 mm
12:24 AM 63.9°F17.7°C 45.5°F7.5°C 51% 9.1 mph SSE14.6 kmh SSE 17.0 mph27.4 kmh 29.88 in1011.9 mb 0.00 in0.0 mm 0.00 in/hr0.0 mm/hr 0.00 in0.0 mm
12:26 AM 63.9°F17.7°C 46.0°F7.8°C 52% 10.4 mph SSE16.7 kmh SSE 16.0 mph25.7 kmh 29.88 in1011.9 mb 0.00 in0.0 mm 0.00 in/hr0.0 mm/hr 0.00 in0.0 mm
12:28 AM 62.9°F17.2°C 45.0°F7.2°C 52% 10.4 mph SSE16.7 kmh SSE 19.0 mph30.6 kmh 29.88 in1011.9 mb 0.00 in0.0 mm 0.00 in/hr0.0 mm/hr 0.00 in0.0 mm
12:30 AM 62.9°F17.2°C 45.0°F7.2°C 52% 6.5 mph SE10.5 kmh SE 15.0 mph24.1 kmh 29.87 in1011.5 mb 0.00 in0.0 mm 0.00 in/hr0.0 mm/hr 0.00 in0.0 mm
12:32 AM 62.9°F17.2°C 45.0°F7.2°C 52% 13.0 mph SE20.9 kmh SE 18.0 mph29.0 kmh 29.87 in1011.5 mb 0.00 in0.0 mm 0.00 in/hr0.0 mm/hr 0.00 in0.0 mm
12:34 AM 62.9°F17.2°C 45.0°F7.2°C 52% 11.7 mph S18.8 kmh S 17.0 mph27.4 kmh 29.87 in1011.5 mb 0.00 in0.0 mm 0.00 in/hr0.0 mm/hr 0.00 in0.0 mm
12:36 AM 62.9°F17.2°C 45.0°F7.2°C 52% 15.6 mph S25.1 kmh S 17.0 mph27.4 kmh 29.87 in1011.5 mb 0.00 in0.0 mm 0.00 in/hr0.0 mm/hr 0.00 in0.0 mm
12:38 AM 62.9°F17.2°C 45.0°F7.2°C 52% 13.0 mph SSE20.9 kmh SSE 20.0 mph32.2 kmh 29.87 in1011.5 mb 0.00 in0.0 mm 0.00 in/hr0.0 mm/hr 0.00 in0.0 mm
12:40 AM 62.9°F17.2°C 45.0°F7.2°C 52% 15.6 mph S25.1 kmh S 13.0 mph20.9 kmh 29.87 in1011.5 mb 0.00 in0.0 mm 0.00 in/hr0.0 mm/hr 0.00 in0.0 mm
12:42 AM 62.9°F17.2°C 45.5°F7.5°C 53% 11.7 mph S18.8 kmh S 17.0 mph27.4 kmh 29.87 in1011.5 mb 0.00 in0.0 mm 0.00 in/hr0.0 mm/hr 0.00 in0.0 mm
12:44 AM 62.9°F17.2°C 45.5°F7.5°C 53% 11.7 mph SE18.8 kmh SE 17.0 mph27.4 kmh 29.87 in1011.5 mb 0.00 in0.0 mm 0.00 in/hr0.0 mm/hr 0.00 in0.0 mm
12:46 AM 62.9°F17.2°C 46.0°F7.8°C 54% 15.6 mph SSW25.1 kmh SSW 12.0 mph19.3 kmh 29.87 in1011.5 mb 0.00 in0.0 mm 0.00 in/hr0.0 mm/hr 0.00 in0.0 mm
12:48 AM 62.9°F17.2°C 46.0°F7.8°C 54% 10.4 mph SE16.7 kmh SE 14.0 mph22.5 kmh 29.87 in1011.5 mb 0.00 in0.0 mm 0.00 in/hr0.0 mm/hr 0.00 in0.0 mm
12:50 AM 62.9°F17.2°C 46.0°F7.8°C 54% 18.2 mph SE29.3 kmh SE 18.0 mph29.0 kmh 29.87 in1011.5 mb 0.00 in0.0 mm 0.00 in/hr0.0 mm/hr 0.00 in0.0 mm
12:52 AM 62.9°F17.2°C 46.0°F7.8°C 54% 9.1 mph SSE14.6 kmh SSE 21.0 mph33.8 kmh 29.87 in1011.5 mb 0.00 in0.0 mm 0.00 in/hr0.0 mm/hr 0.00 in0.0 mm
12:54 AM 62.9°F17.2°C 46.0°F7.8°C 54% 10.4 mph SSW16.7 kmh SSW 13.0 mph20.9 kmh 29.87 in1011.5 mb 0.00 in0.0 mm 0.00 in/hr0.0 mm/hr 0.00 in0.0 mm
12:56 AM 62.9°F17.2°C 46.0°F7.8°C 54% 10.4 mph SE16.7 kmh SE 16.0 mph25.7 kmh 29.87 in1011.5 mb 0.00 in0.0 mm 0.00 in/hr0.0 mm/hr 0.00 in0.0 mm
12:58 AM 62.9°F17.2°C 46.5°F8.1°C 55% 9.1 mph SSE14.6 kmh SSE 16.0 mph25.7 kmh 29.87 in1011.5 mb 0.00 in0.0 mm 0.00 in/hr0.0 mm/hr 0.00 in0.0 mm
01:00 AM 62.9°F17.2°C 46.5°F8.1°C 55% 13.0 mph S20.9 kmh S 15.0 mph24.1 kmh 29.87 in1011.5 mb 0.00 in0.0 mm 0.00 in/hr0.0 mm/hr 0.00 in0.0 mm
01:02 AM 62.9°F17.2°C 46.5°F8.1°C 55% 7.8 mph S12.6 kmh S 13.0 mph20.9 kmh 29.87 in1011.5 mb 0.00 in0.0 mm 0.00 in/hr0.0 mm/hr 0.00 in0.0 mm
01:04 AM 61.9°F16.6°C 45.5°F7.5°C 55% 15.6 mph S25.1 kmh S 14.0 mph22.5 kmh 29.87 in1011.5 mb 0.00 in0.0 mm 0.00 in/hr0.0 mm/hr 0.00 in0.0 mm
01:06 AM 61.9°F16.6°C 46.0°F7.8°C 56% 13.0 mph SSW20.9 kmh SSW 12.0 mph19.3 kmh 29.87 in1011.5 mb 0.00 in0.0 mm 0.00 in/hr0.0 mm/hr 0.00 in0.0 mm
01:08 AM 61.9°F16.6°C 46.0°F7.8°C 56% 11.7 mph S18.8 kmh S 17.0 mph27.4 kmh 29.87 in1011.5 mb 0.00 in0.0 mm 0.00 in/hr0.0 mm/hr 0.00 in0.0 mm
01:10 AM 61.9°F16.6°C 46.0°F7.8°C 56% 7.8 mph S12.6 kmh S 15.0 mph24.1 kmh 29.87 in1011.5 mb 0.00 in0.0 mm 0.00 in/hr0.0 mm/hr 0.00 in0.0 mm
01:12 AM 61.9°F16.6°C 46.0°F7.8°C 56% 9.1 mph ESE14.6 kmh ESE 19.0 mph30.6 kmh 29.87 in1011.5 mb 0.00 in0.0 mm 0.00 in/hr0.0 mm/hr 0.00 in0.0 mm
01:14 AM 61.9°F16.6°C 46.0°F7.8°C 56% 14.3 mph WSW23.0 kmh WSW 14.0 mph22.5 kmh 29.87 in1011.5 mb 0.00 in0.0 mm 0.00 in/hr0.0 mm/hr 0.00 in0.0 mm
01:16 AM 61.9°F16.6°C 46.5°F8.1°C 57% 9.1 mph SSE14.6 kmh SSE 14.0 mph22.5 kmh 29.87 in1011.5 mb 0.00 in0.0 mm 0.00 in/hr0.0 mm/hr 0.00 in0.0 mm
01:18 AM 61.9°F16.6°C 46.5°F8.1°C 57% 11.7 mph S18.8 kmh S 17.0 mph27.4 kmh 29.87 in1011.5 mb 0.00 in0.0 mm 0.00 in/hr0.0 mm/hr 0.00 in0.0 mm
01:20 AM 61.9°F16.6°C 46.0°F7.8°C 56% 11.7 mph S18.8 kmh S 15.0 mph24.1 kmh 29.86 in1011.2 mb 0.00 in0.0 mm 0.00 in/hr0.0 mm/hr 0.00 in0.0 mm
01:22 AM 61.9°F16.6°C 46.0°F7.8°C 56% 10.4 mph S16.7 kmh S 19.0 mph30.6 kmh 29.86 in1011.2 mb 0.00 in0.0 mm 0.00 in/hr0.0 mm/hr 0.00 in0.0 mm
01:24 AM 61.9°F16.6°C 46.0°F7.8°C 56% 14.3 mph S23.0 kmh S 17.0 mph27.4 kmh 29.86 in1011.2 mb 0.00 in0.0 mm 0.00 in/hr0.0 mm/hr 0.00 in0.0 mm
01:26 AM 61.9°F16.6°C 46.0°F7.8°C 56% 16.9 mph S27.2 kmh S 20.0 mph32.2 kmh 29.86 in1011.2 mb 0.00 in0.0 mm 0.00 in/hr0.0 mm/hr 0.00 in0.0 mm
01:28 AM 62.9°F17.2°C 47.0°F8.3°C 56% 19.5 mph SSW31.4 kmh SSW 17.0 mph27.4 kmh 29.86 in1011.2 mb 0.00 in0.0 mm 0.00 in/hr0.0 mm/hr 0.00 in0.0 mm
01:30 AM 62.9°F17.2°C 47.0°F8.3°C 56% 14.3 mph S23.0 kmh S 21.0 mph33.8 kmh 29.87 in1011.5 mb 0.00 in0.0 mm 0.00 in/hr0.0 mm/hr 0.00 in0.0 mm
01:32 AM 61.9°F16.6°C 46.0°F7.8°C 56% 19.5 mph S31.4 kmh S 19.0 mph30.6 kmh 29.87 in1011.5 mb 0.00 in0.0 mm 0.00 in/hr0.0 mm/hr 0.00 in0.0 mm
01:34 AM 61.9°F16.6°C 46.0°F7.8°C 56% 9.1 mph SE14.6 kmh SE 19.0 mph30.6 kmh 29.87 in1011.5 mb 0.00 in0.0 mm 0.00 in/hr0.0 mm/hr 0.00 in0.0 mm
01:36 AM 61.9°F16.6°C 46.5°F8.1°C 57% 14.3 mph SE23.0 kmh SE 17.0 mph27.4 kmh 29.87 in1011.5 mb 0.00 in0.0 mm 0.00 in/hr0.0 mm/hr 0.00 in0.0 mm
01:38 AM 61.9°F16.6°C 46.5°F8.1°C 57% 7.8 mph S12.6 kmh S 15.0 mph24.1 kmh 29.87 in1011.5 mb 0.00 in0.0 mm 0.00 in/hr0.0 mm/hr 0.00 in0.0 mm
01:40 AM 61.9°F16.6°C 46.5°F8.1°C 57% 14.3 mph SSE23.0 kmh SSE 15.0 mph24.1 kmh 29.86 in1011.2 mb 0.00 in0.0 mm 0.00 in/hr0.0 mm/hr 0.00 in0.0 mm
01:42 AM 61.9°F16.6°C 46.5°F8.1°C 57% 7.8 mph S12.6 kmh S 17.0 mph27.4 kmh 29.86 in1011.2 mb 0.00 in0.0 mm 0.00 in/hr0.0 mm/hr 0.00 in0.0 mm
01:44 AM 61.9°F16.6°C 46.5°F8.1°C 57% 18.2 mph S29.3 kmh S 18.0 mph29.0 kmh 29.86 in1011.2 mb 0.00 in0.0 mm 0.00 in/hr0.0 mm/hr 0.00 in0.0 mm
01:46 AM 61.9°F16.6°C 46.5°F8.1°C 57% 15.6 mph SE25.1 kmh SE 19.0 mph30.6 kmh 29.86 in1011.2 mb 0.00 in0.0 mm 0.00 in/hr0.0 mm/hr 0.00 in0.0 mm
01:48 AM 61.9°F16.6°C 46.5°F8.1°C 57% 22.1 mph S35.6 kmh S 17.0 mph27.4 kmh 29.86 in1011.2 mb 0.00 in0.0 mm 0.00 in/hr0.0 mm/hr 0.00 in0.0 mm
01:50 AM 61.9°F16.6°C 46.5°F8.1°C 57% 13.0 mph S20.9 kmh S 20.0 mph32.2 kmh 29.86 in1011.2 mb 0.00 in0.0 mm 0.00 in/hr0.0 mm/hr 0.00 in0.0 mm
01:52 AM 61.9°F16.6°C 46.5°F8.1°C 57% 13.0 mph S20.9 kmh S 15.0 mph24.1 kmh 29.86 in1011.2 mb 0.00 in0.0 mm 0.00 in/hr0.0 mm/hr 0.00 in0.0 mm
01:54 AM 61.9°F16.6°C 46.5°F8.1°C 57% 15.6 mph SSE25.1 kmh SSE 17.0 mph27.4 kmh 29.86 in1011.2 mb 0.00 in0.0 mm 0.00 in/hr0.0 mm/hr 0.00 in0.0 mm
01:56 AM 61.9°F16.6°C 46.5°F8.1°C 57% 11.7 mph SSE18.8 kmh SSE 20.0 mph32.2 kmh 29.86 in1011.2 mb 0.00 in0.0 mm 0.00 in/hr0.0 mm/hr 0.00 in0.0 mm
01:58 AM 61.9°F16.6°C 46.5°F8.1°C 57% 18.2 mph S29.3 kmh S 23.0 mph37.0 kmh 29.86 in1011.2 mb 0.00 in0.0 mm 0.00 in/hr0.0 mm/hr 0.00 in0.0 mm
02:00 AM 61.9°F16.6°C 46.5°F8.1°C 57% 13.0 mph S20.9 kmh S 17.0 mph27.4 kmh 29.85 in1010.8 mb 0.00 in0.0 mm 0.00 in/hr0.0 mm/hr 0.00 in0.0 mm
02:02 AM 61.9°F16.6°C 46.5°F8.1°C 57% 15.6 mph SSW25.1 kmh SSW 20.0 mph32.2 kmh 29.85 in1010.8 mb 0.00 in0.0 mm 0.00 in/hr0.0 mm/hr 0.00 in0.0 mm
02:04 AM 61.9°F16.6°C 46.9°F8.3°C 58% 11.7 mph S18.8 kmh S 17.0 mph27.4 kmh 29.85 in1010.8 mb 0.00 in0.0 mm 0.00 in/hr0.0 mm/hr 0.00 in0.0 mm
02:06 AM 61.9°F16.6°C 46.9°F8.3°C 58% 20.8 mph S33.5 kmh S 16.0 mph25.7 kmh 29.85 in1010.8 mb 0.00 in0.0 mm 0.00 in/hr0.0 mm/hr 0.00 in0.0 mm
02:08 AM 61.9°F16.6°C 46.9°F8.3°C 58% 16.9 mph SSE27.2 kmh SSE 19.0 mph30.6 kmh 29.85 in1010.8 mb 0.00 in0.0 mm 0.00 in/hr0.0 mm/hr 0.00 in0.0 mm
02:10 AM 61.9°F16.6°C 46.9°F8.3°C 58% 13.0 mph S20.9 kmh S 19.0 mph30.6 kmh 29.85 in1010.8 mb 0.00 in0.0 mm 0.00 in/hr0.0 mm/hr 0.00 in0.0 mm
02:12 AM 61.9°F16.6°C 46.9°F8.3°C 58% 18.2 mph SSE29.3 kmh SSE 19.0 mph30.6 kmh 29.85 in1010.8 mb 0.00 in0.0 mm 0.00 in/hr0.0 mm/hr 0.00 in0.0 mm
02:14 AM 61.9°F16.6°C 46.9°F8.3°C 58% 19.5 mph S31.4 kmh S 22.0 mph35.4 kmh 29.85 in1010.8 mb 0.00 in0.0 mm 0.00 in/hr0.0 mm/hr 0.00 in0.0 mm
02:16 AM 61.9°F16.6°C 47.4°F8.6°C 59% 16.9 mph S27.2 kmh S 17.0 mph27.4 kmh 29.85 in1010.8 mb 0.00 in0.0 mm 0.00 in/hr0.0 mm/hr 0.00 in0.0 mm
02:18 AM 61.9°F16.6°C 47.4°F8.6°C 59% 22.1 mph S35.6 kmh S 17.0 mph27.4 kmh 29.85 in1010.8 mb 0.00 in0.0 mm 0.00 in/hr0.0 mm/hr 0.00 in0.0 mm
02:20 AM 61.9°F16.6°C 47.4°F8.6°C 59% 19.5 mph S31.4 kmh S 18.0 mph29.0 kmh 29.84 in1010.5 mb 0.00 in0.0 mm 0.00 in/hr0.0 mm/hr 0.00 in0.0 mm
02:22 AM 61.9°F16.6°C 47.4°F8.6°C 59% 16.9 mph S27.2 kmh S 21.0 mph33.8 kmh 29.84 in1010.5 mb 0.00 in0.0 mm 0.00 in/hr0.0 mm/hr 0.00 in0.0 mm
02:24 AM 61.9°F16.6°C 47.4°F8.6°C 59% 16.9 mph S27.2 kmh S 19.0 mph30.6 kmh 29.84 in1010.5 mb 0.00 in0.0 mm 0.00 in/hr0.0 mm/hr 0.00 in0.0 mm
02:26 AM 61.9°F16.6°C 47.4°F8.6°C 59% 15.6 mph S25.1 kmh S 17.0 mph27.4 kmh 29.84 in1010.5 mb 0.00 in0.0 mm 0.00 in/hr0.0 mm/hr 0.00 in0.0 mm
02:28 AM 61.9°F16.6°C 47.4°F8.6°C 59% 22.1 mph SSW35.6 kmh SSW 22.0 mph35.4 kmh 29.84 in1010.5 mb 0.00 in0.0 mm 0.00 in/hr0.0 mm/hr 0.00 in0.0 mm
02:30 AM 61.9°F16.6°C 47.4°F8.6°C 59% 14.3 mph SSE23.0 kmh SSE 21.0 mph33.8 kmh 29.84 in1010.5 mb 0.00 in0.0 mm 0.00 in/hr0.0 mm/hr 0.00 in0.0 mm
02:32 AM 61.9°F16.6°C 47.4°F8.6°C 59% 16.9 mph S27.2 kmh S 17.0 mph27.4 kmh 29.84 in1010.5 mb 0.00 in0.0 mm 0.00 in/hr0.0 mm/hr 0.00 in0.0 mm
02:34 AM 61.9°F16.6°C 47.4°F8.6°C 59% 9.1 mph SW14.6 kmh SW 21.0 mph33.8 kmh 29.84 in1010.5 mb 0.00 in0.0 mm 0.00 in/hr0.0 mm/hr 0.00 in0.0 mm
02:36 AM 61.9°F16.6°C 47.4°F8.6°C 59% 16.9 mph SSE27.2 kmh SSE 21.0 mph33.8 kmh 29.84 in1010.5 mb 0.00 in0.0 mm 0.00 in/hr0.0 mm/hr 0.00 in0.0 mm
02:38 AM 61.9°F16.6°C 47.4°F8.6°C 59% 15.6 mph S25.1 kmh S 20.0 mph32.2 kmh 29.84 in1010.5 mb 0.00 in0.0 mm 0.00 in/hr0.0 mm/hr 0.00 in0.0 mm
02:40 AM 61.9°F16.6°C 47.4°F8.6°C 59% 19.5 mph SSE31.4 kmh SSE 20.0 mph32.2 kmh 29.83 in1010.2 mb 0.00 in0.0 mm 0.00 in/hr0.0 mm/hr 0.00 in0.0 mm
02:42 AM 61.9°F16.6°C 47.4°F8.6°C 59% 19.5 mph S31.4 kmh S 21.0 mph33.8 kmh 29.83 in1010.2 mb 0.00 in0.0 mm 0.00 in/hr0.0 mm/hr 0.00 in0.0 mm
02:44 AM 61.9°F16.6°C 47.4°F8.6°C 59% 13.0 mph SSW20.9 kmh SSW 21.0 mph33.8 kmh 29.83 in1010.2 mb 0.00 in0.0 mm 0.00 in/hr0.0 mm/hr 0.00 in0.0 mm
02:46 AM 61.9°F16.6°C 47.4°F8.6°C 59% 22.1 mph S35.6 kmh S 26.0 mph41.8 kmh 29.83 in1010.2 mb 0.00 in0.0 mm 0.00 in/hr0.0 mm/hr 0.00 in0.0 mm
02:48 AM 61.9°F16.6°C 47.4°F8.6°C 59% 13.0 mph S20.9 kmh S 20.0 mph32.2 kmh 29.83 in1010.2 mb 0.00 in0.0 mm 0.00 in/hr0.0 mm/hr 0.00 in0.0 mm
02:50 AM 61.9°F16.6°C 47.4°F8.6°C 59% 26.0 mph SSE41.8 kmh SSE 25.0 mph40.2 kmh 29.83 in1010.2 mb 0.00 in0.0 mm 0.00 in/hr0.0 mm/hr 0.00 in0.0 mm
02:52 AM 61.9°F16.6°C 47.4°F8.6°C 59% 16.9 mph SE27.2 kmh SE 22.0 mph35.4 kmh 29.83 in1010.2 mb 0.00 in0.0 mm 0.00 in/hr0.0 mm/hr 0.00 in0.0 mm
02:54 AM 61.9°F16.6°C 47.4°F8.6°C 59% 23.4 mph S37.7 kmh S 19.0 mph30.6 kmh 29.83 in1010.2 mb 0.00 in0.0 mm 0.00 in/hr0.0 mm/hr 0.00 in0.0 mm
02:56 AM 61.9°F16.6°C 47.4°F8.6°C 59% 7.8 mph S12.6 kmh S 20.0 mph32.2 kmh 29.83 in1010.2 mb 0.00 in0.0 mm 0.00 in/hr0.0 mm/hr 0.00 in0.0 mm
02:58 AM 61.9°F16.6°C 47.4°F8.6°C 59% 13.0 mph S20.9 kmh S 21.0 mph33.8 kmh 29.83 in1010.2 mb 0.00 in0.0 mm 0.00 in/hr0.0 mm/hr 0.00 in0.0 mm
03:00 AM 61.9°F16.6°C 47.8°F8.8°C 60% 14.3 mph SW23.0 kmh SW 21.0 mph33.8 kmh 29.83 in1010.2 mb 0.00 in0.0 mm 0.00 in/hr0.0 mm/hr 0.00 in0.0 mm
03:02 AM 61.9°F16.6°C 47.8°F8.8°C 60% 7.8 mph SSE12.6 kmh SSE 21.0 mph33.8 kmh 29.83 in1010.2 mb 0.00 in0.0 mm 0.00 in/hr0.0 mm/hr 0.00 in0.0 mm
03:04 AM 61.9°F16.6°C 47.8°F8.8°C 60% 24.7 mph SSE39.8 kmh SSE 19.0 mph30.6 kmh 29.83 in1010.2 mb 0.00 in0.0 mm 0.00 in/hr0.0 mm/hr 0.00 in0.0 mm
03:06 AM 61.9°F16.6°C 47.8°F8.8°C 60% 11.7 mph SE18.8 kmh SE 19.0 mph30.6 kmh 29.83 in1010.2 mb 0.00 in0.0 mm 0.00 in/hr0.0 mm/hr 0.00 in0.0 mm
03:08 AM 61.9°F16.6°C 47.8°F8.8°C 60% 18.2 mph SSE29.3 kmh SSE 20.0 mph32.2 kmh 29.83 in1010.2 mb 0.00 in0.0 mm 0.00 in/hr0.0 mm/hr 0.00 in0.0 mm
03:10 AM 61.9°F16.6°C 47.8°F8.8°C 60% 16.9 mph SSE27.2 kmh SSE 22.0 mph35.4 kmh 29.82 in1009.8 mb 0.00 in0.0 mm 0.00 in/hr0.0 mm/hr 0.00 in0.0 mm
03:12 AM 61.9°F16.6°C 47.8°F8.8°C 60% 19.5 mph S31.4 kmh S 20.0 mph32.2 kmh 29.82 in1009.8 mb 0.00 in0.0 mm 0.00 in/hr0.0 mm/hr 0.00 in0.0 mm
03:14 AM 61.9°F16.6°C 47.8°F8.8°C 60% 20.8 mph S33.5 kmh S 21.0 mph33.8 kmh 29.82 in1009.8 mb 0.00 in0.0 mm 0.00 in/hr0.0 mm/hr 0.00 in0.0 mm
03:16 AM 61.9°F16.6°C 47.8°F8.8°C 60% 16.9 mph SSE27.2 kmh SSE 21.0 mph33.8 kmh 29.82 in1009.8 mb 0.00 in0.0 mm 0.00 in/hr0.0 mm/hr 0.00 in0.0 mm
03:18 AM 61.9°F16.6°C 47.8°F8.8°C 60% 14.3 mph SSE23.0 kmh SSE 19.0 mph30.6 kmh 29.82 in1009.8 mb 0.00 in0.0 mm 0.00 in/hr0.0 mm/hr 0.00 in0.0 mm
03:20 AM 61.9°F16.6°C 47.8°F8.8°C 60% 15.6 mph S25.1 kmh S 21.0 mph33.8 kmh 29.84 in1010.5 mb 0.00 in0.0 mm 0.00 in/hr0.0 mm/hr 0.00 in0.0 mm
03:22 AM 60.8°F16.0°C 47.3°F8.5°C 61% 15.6 mph SSW25.1 kmh SSW 20.0 mph32.2 kmh 29.84 in1010.5 mb 0.00 in0.0 mm 0.00 in/hr0.0 mm/hr 0.00 in0.0 mm
03:24 AM 60.8°F16.0°C 47.7°F8.7°C 62% 15.6 mph S25.1 kmh S 15.0 mph24.1 kmh 29.84 in1010.5 mb 0.00 in0.0 mm 0.00 in/hr0.0 mm/hr 0.00 in0.0 mm
03:26 AM 60.8°F16.0°C 47.7°F8.7°C 62% 13.0 mph SSW20.9 kmh SSW 18.0 mph29.0 kmh 29.84 in1010.5 mb 0.00 in0.0 mm 0.00 in/hr0.0 mm/hr 0.00 in0.0 mm
03:28 AM 60.8°F16.0°C 47.7°F8.7°C 62% 11.7 mph SE18.8 kmh SE 15.0 mph24.1 kmh 29.84 in1010.5 mb 0.00 in0.0 mm 0.00 in/hr0.0 mm/hr 0.00 in0.0 mm
03:30 AM 60.8°F16.0°C 47.7°F8.7°C 62% 15.6 mph S25.1 kmh S 17.0 mph27.4 kmh 29.83 in1010.2 mb 0.00 in0.0 mm 0.00 in/hr0.0 mm/hr 0.00 in0.0 mm
03:32 AM 60.8°F16.0°C 47.7°F8.7°C 62% 10.4 mph SSW16.7 kmh SSW 14.0 mph22.5 kmh 29.83 in1010.2 mb 0.00 in0.0 mm 0.00 in/hr0.0 mm/hr 0.00 in0.0 mm
03:34 AM 60.8°F16.0°C 47.7°F8.7°C 62% 6.5 mph S10.5 kmh S 17.0 mph27.4 kmh 29.83 in1010.2 mb 0.00 in0.0 mm 0.00 in/hr0.0 mm/hr 0.00 in0.0 mm
03:36 AM 60.8°F16.0°C 47.7°F8.7°C 62% 16.9 mph S27.2 kmh S 16.0 mph25.7 kmh 29.83 in1010.2 mb 0.00 in0.0 mm 0.00 in/hr0.0 mm/hr 0.00 in0.0 mm
03:38 AM 60.8°F16.0°C 47.7°F8.7°C 62% 9.1 mph SSW14.6 kmh SSW 14.0 mph22.5 kmh 29.83 in1010.2 mb 0.00 in0.0 mm 0.00 in/hr0.0 mm/hr 0.00 in0.0 mm
03:40 AM 60.8°F16.0°C 47.7°F8.7°C 62% 20.8 mph S33.5 kmh S 19.0 mph30.6 kmh 29.83 in1010.2 mb 0.00 in0.0 mm 0.00 in/hr0.0 mm/hr 0.00 in0.0 mm
03:42 AM 60.8°F16.0°C 47.7°F8.7°C 62% 13.0 mph S20.9 kmh S 16.0 mph25.7 kmh 29.83 in1010.2 mb 0.00 in0.0 mm 0.00 in/hr0.0 mm/hr 0.00 in0.0 mm
03:44 AM 60.8°F16.0°C 47.7°F8.7°C 62% 20.8 mph S33.5 kmh S 20.0 mph32.2 kmh 29.83 in1010.2 mb 0.00 in0.0 mm 0.00 in/hr0.0 mm/hr 0.00 in0.0 mm
03:46 AM 60.8°F16.0°C 47.7°F8.7°C 62% 9.1 mph SSW14.6 kmh SSW 17.0 mph27.4 kmh 29.83 in1010.2 mb 0.00 in0.0 mm 0.00 in/hr0.0 mm/hr 0.00 in0.0 mm
03:48 AM 60.8°F16.0°C 47.7°F8.7°C 62% 7.8 mph S12.6 kmh S 17.0 mph27.4 kmh 29.83 in1010.2 mb 0.00 in0.0 mm 0.00 in/hr0.0 mm/hr 0.00 in0.0 mm
03:50 AM 60.8°F16.0°C 47.7°F8.7°C 62% 11.7 mph SSW18.8 kmh SSW 12.0 mph19.3 kmh 29.83 in1010.2 mb 0.00 in0.0 mm 0.00 in/hr0.0 mm/hr 0.00 in0.0 mm
03:52 AM 60.8°F16.0°C 48.2°F9.0°C 63% 7.8 mph SSW12.6 kmh SSW 11.0 mph17.7 kmh 29.83 in1010.2 mb 0.00 in0.0 mm 0.00 in/hr0.0 mm/hr 0.00 in0.0 mm
03:54 AM 59.8°F15.4°C 47.2°F8.4°C 63% 14.3 mph SW23.0 kmh SW 12.0 mph19.3 kmh 29.83 in1010.2 mb 0.00 in0.0 mm 0.00 in/hr0.0 mm/hr 0.00 in0.0 mm
03:56 AM 60.8°F16.0°C 48.2°F9.0°C 63% 11.7 mph SSW18.8 kmh SSW 14.0 mph22.5 kmh 29.83 in1010.2 mb 0.00 in0.0 mm 0.00 in/hr0.0 mm/hr 0.00 in0.0 mm
03:58 AM 60.8°F16.0°C 48.2°F9.0°C 63% 11.7 mph SSW18.8 kmh SSW 11.0 mph17.7 kmh 29.83 in1010.2 mb 0.00 in0.0 mm 0.00 in/hr0.0 mm/hr 0.00 in0.0 mm
04:00 AM 60.8°F16.0°C 47.7°F8.7°C 62% 11.7 mph SSW18.8 kmh SSW 12.0 mph19.3 kmh 29.83 in1010.2 mb 0.00 in0.0 mm 0.00 in/hr0.0 mm/hr 0.00 in0.0 mm
04:02 AM 60.8°F16.0°C 47.7°F8.7°C 62% 6.5 mph SSW10.5 kmh SSW 11.0 mph17.7 kmh 29.83 in1010.2 mb 0.00 in0.0 mm 0.00 in/hr0.0 mm/hr 0.00 in0.0 mm
04:04 AM 60.8°F16.0°C 47.7°F8.7°C 62% 7.8 mph SSW12.6 kmh SSW 16.0 mph25.7 kmh 29.83 in1010.2 mb 0.00 in0.0 mm 0.00 in/hr0.0 mm/hr 0.00 in0.0 mm
04:06 AM 60.8°F16.0°C 47.7°F8.7°C 62% 11.7 mph SSW18.8 kmh SSW 12.0 mph19.3 kmh 29.83 in1010.2 mb 0.00 in0.0 mm 0.00 in/hr0.0 mm/hr 0.00 in0.0 mm
04:08 AM 60.8°F16.0°C 47.7°F8.7°C 62% 7.8 mph S12.6 kmh S 14.0 mph22.5 kmh 29.83 in1010.2 mb 0.00 in0.0 mm 0.00 in/hr0.0 mm/hr 0.00 in0.0 mm
04:10 AM 60.8°F16.0°C 47.7°F8.7°C 62% 10.4 mph SSW16.7 kmh SSW 18.0 mph29.0 kmh 29.83 in1010.2 mb 0.00 in0.0 mm 0.00 in/hr0.0 mm/hr 0.00 in0.0 mm
04:12 AM 60.8°F16.0°C 47.3°F8.5°C 61% 11.7 mph SSW18.8 kmh SSW 12.0 mph19.3 kmh 29.83 in1010.2 mb 0.00 in0.0 mm 0.00 in/hr0.0 mm/hr 0.00 in0.0 mm
04:30 AM 60.8°F16.0°C 47.3°F8.5°C 61% 10.4 mph S16.7 kmh S 15.0 mph24.1 kmh 29.83 in1010.2 mb 0.00 in0.0 mm 0.00 in/hr0.0 mm/hr 0.00 in0.0 mm
04:32 AM 60.8°F16.0°C 47.3°F8.5°C 61% 10.4 mph SW16.7 kmh SW 12.0 mph19.3 kmh 29.83 in1010.2 mb 0.00 in0.0 mm 0.00 in/hr0.0 mm/hr 0.00 in0.0 mm
04:34 AM 60.8°F16.0°C 47.3°F8.5°C 61% 10.4 mph SSW16.7 kmh SSW 13.0 mph20.9 kmh 29.83 in1010.2 mb 0.00 in0.0 mm 0.00 in/hr0.0 mm/hr 0.00 in0.0 mm
04:36 AM 60.8°F16.0°C 47.3°F8.5°C 61% 11.7 mph SSW18.8 kmh SSW 11.0 mph17.7 kmh 29.83 in1010.2 mb 0.00 in0.0 mm 0.00 in/hr0.0 mm/hr 0.00 in0.0 mm
04:38 AM 60.8°F16.0°C 46.9°F8.3°C 60% 9.1 mph S14.6 kmh S 14.0 mph22.5 kmh 29.83 in1010.2 mb 0.00 in0.0 mm 0.00 in/hr0.0 mm/hr 0.00 in0.0 mm
04:40 AM 60.8°F16.0°C 46.9°F8.3°C 60% 10.4 mph SSW16.7 kmh SSW 14.0 mph22.5 kmh 29.83 in1010.2 mb 0.00 in0.0 mm 0.00 in/hr0.0 mm/hr 0.00 in0.0 mm
04:42 AM 60.8°F16.0°C 47.3°F8.5°C 61% 10.4 mph S16.7 kmh S 14.0 mph22.5 kmh 29.83 in1010.2 mb 0.00 in0.0 mm 0.00 in/hr0.0 mm/hr 0.00 in0.0 mm
04:44 AM 60.8°F16.0°C 47.3°F8.5°C 61% 7.8 mph SSW12.6 kmh SSW 11.0 mph17.7 kmh 29.83 in1010.2 mb 0.00 in0.0 mm 0.00 in/hr0.0 mm/hr 0.00 in0.0 mm
04:46 AM 60.8°F16.0°C 47.3°F8.5°C 61% 9.1 mph SSW14.6 kmh SSW 12.0 mph19.3 kmh 29.83 in1010.2 mb 0.00 in0.0 mm 0.00 in/hr0.0 mm/hr 0.00 in0.0 mm
04:48 AM 60.8°F16.0°C 47.3°F8.5°C 61% 13.0 mph SSW20.9 kmh SSW 13.0 mph20.9 kmh 29.83 in1010.2 mb 0.00 in0.0 mm 0.00 in/hr0.0 mm/hr 0.00 in0.0 mm
04:50 AM 60.8°F16.0°C 47.3°F8.5°C 61% 11.7 mph SSW18.8 kmh SSW 14.0 mph22.5 kmh 29.83 in1010.2 mb 0.00 in0.0 mm 0.00 in/hr0.0 mm/hr 0.00 in0.0 mm
04:52 AM 59.8°F15.4°C 46.8°F8.2°C 62% 9.1 mph SSW14.6 kmh SSW 12.0 mph19.3 kmh 29.83 in1010.2 mb 0.00 in0.0 mm 0.00 in/hr0.0 mm/hr 0.00 in0.0 mm
04:54 AM 59.8°F15.4°C 46.8°F8.2°C 62% 9.1 mph S14.6 kmh S 12.0 mph19.3 kmh 29.83 in1010.2 mb 0.00 in0.0 mm 0.00 in/hr0.0 mm/hr 0.00 in0.0 mm
04:56 AM 59.8°F15.4°C 46.8°F8.2°C 62% 9.1 mph SSW14.6 kmh SSW 12.0 mph19.3 kmh 29.83 in1010.2 mb 0.00 in0.0 mm 0.00 in/hr0.0 mm/hr 0.00 in0.0 mm
04:58 AM 59.8°F15.4°C 46.8°F8.2°C 62% 13.0 mph SSW20.9 kmh SSW 12.0 mph19.3 kmh 29.83 in1010.2 mb 0.00 in0.0 mm 0.00 in/hr0.0 mm/hr 0.00 in0.0 mm
05:00 AM 59.8°F15.4°C 46.8°F8.2°C 62% 7.8 mph SSW12.6 kmh SSW 10.0 mph16.1 kmh 29.83 in1010.2 mb 0.00 in0.0 mm 0.00 in/hr0.0 mm/hr 0.00 in0.0 mm
05:02 AM 59.8°F15.4°C 46.8°F8.2°C 62% 6.5 mph SSW10.5 kmh SSW 12.0 mph19.3 kmh 29.83 in1010.2 mb 0.00 in0.0 mm 0.00 in/hr0.0 mm/hr 0.00 in0.0 mm
05:04 AM 59.8°F15.4°C 46.8°F8.2°C 62% 7.8 mph SSW12.6 kmh SSW 11.0 mph17.7 kmh 29.83 in1010.2 mb 0.00 in0.0 mm 0.00 in/hr0.0 mm/hr 0.00 in0.0 mm
05:06 AM 59.8°F15.4°C 47.2°F8.4°C 63% 7.8 mph SW12.6 kmh SW 10.0 mph16.1 kmh 29.83 in1010.2 mb 0.00 in0.0 mm 0.00 in/hr0.0 mm/hr 0.00 in0.0 mm
05:08 AM 59.8°F15.4°C 47.2°F8.4°C 63% 11.7 mph SSW18.8 kmh SSW 11.0 mph17.7 kmh 29.83 in1010.2 mb 0.00 in0.0 mm 0.00 in/hr0.0 mm/hr 0.00 in0.0 mm
05:10 AM 59.8°F15.4°C 46.8°F8.2°C 62% 7.8 mph SW12.6 kmh SW 11.0 mph17.7 kmh 29.83 in1010.2 mb 0.00 in0.0 mm 0.00 in/hr0.0 mm/hr 0.00 in0.0 mm
05:12 AM 59.8°F15.4°C 47.2°F8.4°C 63% 10.4 mph SSW16.7 kmh SSW 10.0 mph16.1 kmh 29.83 in1010.2 mb 0.00 in0.0 mm 0.00 in/hr0.0 mm/hr 0.00 in0.0 mm
05:14 AM 59.8°F15.4°C 46.8°F8.2°C 62% 9.1 mph S14.6 kmh S 14.0 mph22.5 kmh 29.83 in1010.2 mb 0.00 in0.0 mm 0.00 in/hr0.0 mm/hr 0.00 in0.0 mm
05:16 AM 59.8°F15.4°C 46.8°F8.2°C 62% 14.3 mph SSW23.0 kmh SSW 11.0 mph17.7 kmh 29.83 in1010.2 mb 0.00 in0.0 mm 0.00 in/hr0.0 mm/hr 0.00 in0.0 mm
05:18 AM 59.8°F15.4°C 46.8°F8.2°C 62% 11.7 mph SSW18.8 kmh SSW 13.0 mph20.9 kmh 29.83 in1010.2 mb 0.00 in0.0 mm 0.00 in/hr0.0 mm/hr 0.00 in0.0 mm
05:20 AM 59.8°F15.4°C 46.8°F8.2°C 62% 11.7 mph SSW18.8 kmh SSW 12.0 mph19.3 kmh 29.82 in1009.8 mb 0.00 in0.0 mm 0.00 in/hr0.0 mm/hr 0.00 in0.0 mm
05:22 AM 59.8°F15.4°C 46.8°F8.2°C 62% 11.7 mph S18.8 kmh S 14.0 mph22.5 kmh 29.82 in1009.8 mb 0.00 in0.0 mm 0.00 in/hr0.0 mm/hr 0.00 in0.0 mm
05:24 AM 59.8°F15.4°C 46.8°F8.2°C 62% 7.8 mph SSW12.6 kmh SSW 10.0 mph16.1 kmh 29.82 in1009.8 mb 0.00 in0.0 mm 0.00 in/hr0.0 mm/hr 0.00 in0.0 mm
05:26 AM 59.8°F15.4°C 47.2°F8.4°C 63% 10.4 mph SSW16.7 kmh SSW 11.0 mph17.7 kmh 29.82 in1009.8 mb 0.00 in0.0 mm 0.00 in/hr0.0 mm/hr 0.00 in0.0 mm
05:28 AM 58.8°F14.9°C 45.8°F7.7°C 62% 13.0 mph SW20.9 kmh SW 13.0 mph20.9 kmh 29.82 in1009.8 mb 0.00 in0.0 mm 0.00 in/hr0.0 mm/hr 0.00 in0.0 mm
05:30 AM 58.8°F14.9°C 45.8°F7.7°C 62% 11.7 mph SSW18.8 kmh SSW 11.0 mph17.7 kmh 29.84 in1010.5 mb 0.00 in0.0 mm 0.00 in/hr0.0 mm/hr 0.00 in0.0 mm
05:32 AM 58.8°F14.9°C 45.8°F7.7°C 62% 9.1 mph SW14.6 kmh SW 12.0 mph19.3 kmh 29.84 in1010.5 mb 0.00 in0.0 mm 0.00 in/hr0.0 mm/hr 0.00 in0.0 mm
05:34 AM 58.8°F14.9°C 46.2°F7.9°C 63% 7.8 mph S12.6 kmh S 11.0 mph17.7 kmh 29.84 in1010.5 mb 0.00 in0.0 mm 0.00 in/hr0.0 mm/hr 0.00 in0.0 mm
05:36 AM 58.8°F14.9°C 46.2°F7.9°C 63% 9.1 mph SSW14.6 kmh SSW 10.0 mph16.1 kmh 29.84 in1010.5 mb 0.00 in0.0 mm 0.00 in/hr0.0 mm/hr 0.00 in0.0 mm
05:38 AM 58.8°F14.9°C 46.2°F7.9°C 63% 5.2 mph SSW8.4 kmh SSW 11.0 mph17.7 kmh 29.84 in1010.5 mb 0.00 in0.0 mm 0.00 in/hr0.0 mm/hr 0.00 in0.0 mm
05:40 AM 58.8°F14.9°C 46.2°F7.9°C 63% 9.1 mph SSW14.6 kmh SSW 10.0 mph16.1 kmh 29.84 in1010.5 mb 0.00 in0.0 mm 0.00 in/hr0.0 mm/hr 0.00 in0.0 mm
05:42 AM 58.8°F14.9°C 46.6°F8.1°C 64% 10.4 mph SW16.7 kmh SW 10.0 mph16.1 kmh 29.84 in1010.5 mb 0.00 in0.0 mm 0.00 in/hr0.0 mm/hr 0.00 in0.0 mm
05:44 AM 57.7°F14.3°C 45.7°F7.6°C 64% 9.1 mph SSW14.6 kmh SSW 10.0 mph16.1 kmh 29.84 in1010.5 mb 0.00 in0.0 mm 0.00 in/hr0.0 mm/hr 0.00 in0.0 mm
05:46 AM 57.7°F14.3°C 45.7°F7.6°C 64% 6.5 mph SW10.5 kmh SW 10.0 mph16.1 kmh 29.84 in1010.5 mb 0.00 in0.0 mm 0.00 in/hr0.0 mm/hr 0.00 in0.0 mm
05:48 AM 57.7°F14.3°C 45.7°F7.6°C 64% 9.1 mph SSW14.6 kmh SSW 10.0 mph16.1 kmh 29.84 in1010.5 mb 0.00 in0.0 mm 0.00 in/hr0.0 mm/hr 0.00 in0.0 mm
05:50 AM 57.7°F14.3°C 45.7°F7.6°C 64% 13.0 mph SW20.9 kmh SW 10.0 mph16.1 kmh 29.84 in1010.5 mb 0.00 in0.0 mm 0.00 in/hr0.0 mm/hr 0.00 in0.0 mm
05:52 AM 57.7°F14.3°C 45.7°F7.6°C 64% 9.1 mph SW14.6 kmh SW 11.0 mph17.7 kmh 29.84 in1010.5 mb 0.00 in0.0 mm 0.00 in/hr0.0 mm/hr 0.00 in0.0 mm
05:54 AM 57.7°F14.3°C 45.7°F7.6°C 64% 13.0 mph SSW20.9 kmh SSW 10.0 mph16.1 kmh 29.84 in1010.5 mb 0.00 in0.0 mm 0.00 in/hr0.0 mm/hr 0.00 in0.0 mm
05:56 AM 57.7°F14.3°C 45.7°F7.6°C 64% 5.2 mph W8.4 kmh W 10.0 mph16.1 kmh 29.84 in1010.5 mb 0.00 in0.0 mm 0.00 in/hr0.0 mm/hr 0.00 in0.0 mm
05:58 AM 57.7°F14.3°C 45.7°F7.6°C 64% 2.6 mph WSW4.2 kmh WSW 8.0 mph12.9 kmh 29.84 in1010.5 mb 0.00 in0.0 mm 0.00 in/hr0.0 mm/hr 0.00 in0.0 mm
06:00 AM 57.7°F14.3°C 46.1°F7.8°C 65% 3.9 mph SW6.3 kmh SW 4.0 mph6.4 kmh 29.85 in1010.8 mb 0.00 in0.0 mm 0.00 in/hr0.0 mm/hr 0.00 in0.0 mm
06:02 AM 56.7°F13.7°C 45.5°F7.5°C 66% 2.6 mph WSW4.2 kmh WSW 5.0 mph8.0 kmh 29.85 in1010.8 mb 0.00 in0.0 mm 0.00 in/hr0.0 mm/hr 0.00 in0.0 mm
06:04 AM 56.7°F13.7°C 45.5°F7.5°C 66% 3.9 mph W6.3 kmh W 7.0 mph11.3 kmh 29.85 in1010.8 mb 0.00 in0.0 mm 0.00 in/hr0.0 mm/hr 0.00 in0.0 mm
06:06 AM 56.7°F13.7°C 46.3°F7.9°C 68% 6.5 mph WSW10.5 kmh WSW 9.0 mph14.5 kmh 29.85 in1010.8 mb 0.00 in0.0 mm 0.00 in/hr0.0 mm/hr 0.00 in0.0 mm
06:08 AM 56.7°F13.7°C 45.9°F7.7°C 67% 2.6 mph W4.2 kmh W 10.0 mph16.1 kmh 29.85 in1010.8 mb 0.00 in0.0 mm 0.00 in/hr0.0 mm/hr 0.00 in0.0 mm
06:10 AM 56.7°F13.7°C 46.3°F7.9°C 68% 5.2 mph WSW8.4 kmh WSW 5.0 mph8.0 kmh 29.86 in1011.2 mb 0.00 in0.0 mm 0.00 in/hr0.0 mm/hr 0.00 in0.0 mm
06:12 AM 55.7°F13.2°C 45.3°F7.4°C 68% 5.2 mph WSW8.4 kmh WSW 5.0 mph8.0 kmh 29.86 in1011.2 mb 0.00 in0.0 mm 0.00 in/hr0.0 mm/hr 0.00 in0.0 mm
06:14 AM 55.7°F13.2°C 45.3°F7.4°C 68% 6.5 mph SSW10.5 kmh SSW 7.0 mph11.3 kmh 29.86 in1011.2 mb 0.00 in0.0 mm 0.00 in/hr0.0 mm/hr 0.00 in0.0 mm
06:16 AM 55.7°F13.2°C 45.3°F7.4°C 68% 3.9 mph SW6.3 kmh SW 9.0 mph14.5 kmh 29.86 in1011.2 mb 0.00 in0.0 mm 0.00 in/hr0.0 mm/hr 0.00 in0.0 mm
06:18 AM 56.7°F13.7°C 46.3°F7.9°C 68% 5.2 mph SSW8.4 kmh SSW 10.0 mph16.1 kmh 29.86 in1011.2 mb 0.00 in0.0 mm 0.00 in/hr0.0 mm/hr 0.00 in0.0 mm
06:20 AM 56.7°F13.7°C 46.3°F7.9°C 68% 3.9 mph WSW6.3 kmh WSW 6.0 mph9.7 kmh 29.86 in1011.2 mb 0.00 in0.0 mm 0.00 in/hr0.0 mm/hr 0.00 in0.0 mm
06:22 AM 56.7°F13.7°C 46.3°F7.9°C 68% 3.9 mph W6.3 kmh W 6.0 mph9.7 kmh 29.86 in1011.2 mb 0.00 in0.0 mm 0.00 in/hr0.0 mm/hr 0.00 in0.0 mm
06:24 AM 56.7°F13.7°C 46.3°F7.9°C 68% 1.3 mph SSW2.1 kmh SSW 4.0 mph6.4 kmh 29.86 in1011.2 mb 0.00 in0.0 mm 0.00 in/hr0.0 mm/hr 0.00 in0.0 mm
06:26 AM 56.7°F13.7°C 46.3°F7.9°C 68% 5.2 mph WNW8.4 kmh WNW 9.0 mph14.5 kmh 29.86 in1011.2 mb 0.00 in0.0 mm 0.00 in/hr0.0 mm/hr 0.00 in0.0 mm
06:28 AM 56.7°F13.7°C 45.5°F7.5°C 66% 10.4 mph SW16.7 kmh SW 17.0 mph27.4 kmh 29.86 in1011.2 mb 0.00 in0.0 mm 0.00 in/hr0.0 mm/hr 0.00 in0.0 mm
06:30 AM 57.7°F14.3°C 46.1°F7.8°C 65% 11.7 mph SW18.8 kmh SW 10.0 mph16.1 kmh 29.87 in1011.5 mb 0.00 in0.0 mm 0.00 in/hr0.0 mm/hr 0.00 in0.0 mm
06:32 AM 57.7°F14.3°C 46.1°F7.8°C 65% 2.6 mph WSW4.2 kmh WSW 7.0 mph11.3 kmh 29.87 in1011.5 mb 0.00 in0.0 mm 0.00 in/hr0.0 mm/hr 0.00 in0.0 mm
06:36 AM 57.7°F14.3°C 46.1°F7.8°C 65% 2.6 mph SW4.2 kmh SW 5.0 mph8.0 kmh 29.87 in1011.5 mb 0.00 in0.0 mm 0.00 in/hr0.0 mm/hr 0.00 in0.0 mm
06:38 AM 57.7°F14.3°C 46.5°F8.1°C 66% 5.2 mph WSW8.4 kmh WSW 4.0 mph6.4 kmh 29.87 in1011.5 mb 0.00 in0.0 mm 0.00 in/hr0.0 mm/hr 0.00 in0.0 mm
06:40 AM 56.7°F13.7°C 45.5°F7.5°C 66% 5.2 mph WSW8.4 kmh WSW 5.0 mph8.0 kmh 29.87 in1011.5 mb 0.00 in0.0 mm 0.00 in/hr0.0 mm/hr 0.00 in0.0 mm
06:42 AM 56.7°F13.7°C 46.3°F7.9°C 68% 5.2 mph WSW8.4 kmh WSW 6.0 mph9.7 kmh 29.87 in1011.5 mb 0.00 in0.0 mm 0.00 in/hr0.0 mm/hr 0.00 in0.0 mm
06:44 AM 56.7°F13.7°C 46.3°F7.9°C 68% 3.9 mph WSW6.3 kmh WSW 5.0 mph8.0 kmh 29.87 in1011.5 mb 0.00 in0.0 mm 0.00 in/hr0.0 mm/hr 0.00 in0.0 mm
06:46 AM 56.7°F13.7°C 46.3°F7.9°C 68% 5.2 mph WSW8.4 kmh WSW 4.0 mph6.4 kmh 29.87 in1011.5 mb 0.00 in0.0 mm 0.00 in/hr0.0 mm/hr 0.00 in0.0 mm
06:48 AM 56.7°F13.7°C 46.7°F8.2°C 69% 3.9 mph WSW6.3 kmh WSW 5.0 mph8.0 kmh 29.87 in1011.5 mb 0.00 in0.0 mm 0.00 in/hr0.0 mm/hr 0.00 in0.0 mm
06:50 AM 55.7°F13.2°C 45.7°F7.6°C 69% 1.3 mph SW2.1 kmh SW 5.0 mph8.0 kmh 29.87 in1011.5 mb 0.00 in0.0 mm 0.00 in/hr0.0 mm/hr 0.00 in0.0 mm
06:52 AM 55.7°F13.2°C 45.7°F7.6°C 69% 3.9 mph S6.3 kmh S 4.0 mph6.4 kmh 29.87 in1011.5 mb 0.00 in0.0 mm 0.00 in/hr0.0 mm/hr 0.00 in0.0 mm
06:56 AM 55.7°F13.2°C 46.4°F8.0°C 71% 9.1 mph WSW14.6 kmh WSW 8.0 mph12.9 kmh 29.87 in1011.5 mb 0.00 in0.0 mm 0.00 in/hr0.0 mm/hr 0.00 in0.0 mm
06:58 AM 54.7°F12.6°C 46.2°F7.9°C 73% 10.4 mph W16.7 kmh W 10.0 mph16.1 kmh 29.87 in1011.5 mb 0.00 in0.0 mm 0.00 in/hr0.0 mm/hr 0.00 in0.0 mm
07:00 AM 54.7°F12.6°C 46.5°F8.1°C 74% 13.0 mph W20.9 kmh W 10.0 mph16.1 kmh 29.88 in1011.9 mb 0.00 in0.0 mm 0.00 in/hr0.0 mm/hr 0.00 in0.0 mm
07:02 AM 54.7°F12.6°C 46.5°F8.1°C 74% 10.4 mph WSW16.7 kmh WSW 10.0 mph16.1 kmh 29.88 in1011.9 mb 0.00 in0.0 mm 0.00 in/hr0.0 mm/hr 0.00 in0.0 mm
07:04 AM 54.7°F12.6°C 46.9°F8.3°C 75% 10.4 mph W16.7 kmh W 9.0 mph14.5 kmh 29.88 in1011.9 mb 0.00 in0.0 mm 0.00 in/hr0.0 mm/hr 0.00 in0.0 mm
07:06 AM 53.6°F12.0°C 46.3°F7.9°C 76% 7.8 mph W12.6 kmh W 10.0 mph16.1 kmh 29.88 in1011.9 mb 0.00 in0.0 mm 0.00 in/hr0.0 mm/hr 0.00 in0.0 mm
07:08 AM 53.6°F12.0°C 45.9°F7.7°C 75% 11.7 mph W18.8 kmh W 11.0 mph17.7 kmh 29.88 in1011.9 mb 0.00 in0.0 mm 0.00 in/hr0.0 mm/hr 0.00 in0.0 mm
07:10 AM 54.7°F12.6°C 46.5°F8.1°C 74% 13.0 mph W20.9 kmh W 14.0 mph22.5 kmh 29.89 in1012.2 mb 0.00 in0.0 mm 0.00 in/hr0.0 mm/hr 0.00 in0.0 mm
07:12 AM 53.6°F12.0°C 46.3°F7.9°C 76% 11.7 mph W18.8 kmh W 10.0 mph16.1 kmh 29.89 in1012.2 mb 0.00 in0.0 mm 0.00 in/hr0.0 mm/hr 0.00 in0.0 mm
07:14 AM 53.6°F12.0°C 45.9°F7.7°C 75% 10.4 mph W16.7 kmh W 11.0 mph17.7 kmh 29.89 in1012.2 mb 0.00 in0.0 mm 0.00 in/hr0.0 mm/hr 0.00 in0.0 mm
07:16 AM 53.6°F12.0°C 46.3°F7.9°C 76% 10.4 mph W16.7 kmh W 11.0 mph17.7 kmh 29.89 in1012.2 mb 0.00 in0.0 mm 0.00 in/hr0.0 mm/hr 0.00 in0.0 mm
07:18 AM 54.7°F12.6°C 46.5°F8.1°C 74% 11.7 mph W18.8 kmh W 16.0 mph25.7 kmh 29.89 in1012.2 mb 0.00 in0.0 mm 0.00 in/hr0.0 mm/hr 0.00 in0.0 mm
07:20 AM 54.7°F12.6°C 46.2°F7.9°C 73% 14.3 mph W23.0 kmh W 14.0 mph22.5 kmh 29.89 in1012.2 mb 0.00 in0.0 mm 0.00 in/hr0.0 mm/hr 0.00 in0.0 mm
07:22 AM 55.7°F13.2°C 46.1°F7.8°C 70% 13.0 mph W20.9 kmh W 16.0 mph25.7 kmh 29.89 in1012.2 mb 0.00 in0.0 mm 0.00 in/hr0.0 mm/hr 0.00 in0.0 mm
07:24 AM 56.7°F13.7°C 46.7°F8.2°C 69% 15.6 mph W25.1 kmh W 16.0 mph25.7 kmh 29.89 in1012.2 mb 0.00 in0.0 mm 0.00 in/hr0.0 mm/hr 0.00 in0.0 mm
07:26 AM 56.7°F13.7°C 46.3°F7.9°C 68% 19.5 mph W31.4 kmh W 15.0 mph24.1 kmh 29.89 in1012.2 mb 0.00 in0.0 mm 0.00 in/hr0.0 mm/hr 0.00 in0.0 mm
07:28 AM 57.7°F14.3°C 47.3°F8.5°C 68% 11.7 mph W18.8 kmh W 16.0 mph25.7 kmh 29.89 in1012.2 mb 0.00 in0.0 mm 0.00 in/hr0.0 mm/hr 0.00 in0.0 mm
07:30 AM 57.7°F14.3°C 45.7°F7.6°C 64% 10.4 mph W16.7 kmh W 17.0 mph27.4 kmh 29.87 in1011.5 mb 0.00 in0.0 mm 0.00 in/hr0.0 mm/hr 0.00 in0.0 mm
07:32 AM 58.8°F14.9°C 45.4°F7.4°C 61% 15.6 mph WNW25.1 kmh WNW 18.0 mph29.0 kmh 29.87 in1011.5 mb 0.00 in0.0 mm 0.00 in/hr0.0 mm/hr 0.00 in0.0 mm
07:34 AM 58.8°F14.9°C 45.4°F7.4°C 61% 13.0 mph WNW20.9 kmh WNW 17.0 mph27.4 kmh 29.87 in1011.5 mb 0.00 in0.0 mm 0.00 in/hr0.0 mm/hr 0.00 in0.0 mm
07:36 AM 58.8°F14.9°C 44.5°F6.9°C 59% 15.6 mph W25.1 kmh W 20.0 mph32.2 kmh 29.87 in1011.5 mb 0.00 in0.0 mm 0.00 in/hr0.0 mm/hr 0.00 in0.0 mm
07:38 AM 59.8°F15.4°C 45.9°F7.7°C 60% 19.5 mph WNW31.4 kmh WNW 22.0 mph35.4 kmh 29.87 in1011.5 mb 0.00 in0.0 mm 0.00 in/hr0.0 mm/hr 0.00 in0.0 mm
07:40 AM 59.8°F15.4°C 45.5°F7.5°C 59% 15.6 mph WNW25.1 kmh WNW 19.0 mph30.6 kmh 29.86 in1011.2 mb 0.00 in0.0 mm 0.00 in/hr0.0 mm/hr 0.00 in0.0 mm
07:42 AM 59.8°F15.4°C 45.5°F7.5°C 59% 20.8 mph WNW33.5 kmh WNW 20.0 mph32.2 kmh 29.86 in1011.2 mb 0.00 in0.0 mm 0.00 in/hr0.0 mm/hr 0.00 in0.0 mm
07:44 AM 59.8°F15.4°C 44.6°F7.0°C 57% 15.6 mph NW25.1 kmh NW 22.0 mph35.4 kmh 29.86 in1011.2 mb 0.00 in0.0 mm 0.00 in/hr0.0 mm/hr 0.00 in0.0 mm
07:46 AM 59.8°F15.4°C 45.0°F7.2°C 58% 18.2 mph W29.3 kmh W 19.0 mph30.6 kmh 29.86 in1011.2 mb 0.00 in0.0 mm 0.00 in/hr0.0 mm/hr 0.00 in0.0 mm
07:48 AM 59.8°F15.4°C 44.6°F7.0°C 57% 11.7 mph NW18.8 kmh NW 23.0 mph37.0 kmh 29.86 in1011.2 mb 0.00 in0.0 mm 0.00 in/hr0.0 mm/hr 0.00 in0.0 mm
07:50 AM 59.8°F15.4°C 44.1°F6.7°C 56% 19.5 mph WNW31.4 kmh WNW 22.0 mph35.4 kmh 29.86 in1011.2 mb 0.00 in0.0 mm 0.00 in/hr0.0 mm/hr 0.00 in0.0 mm
07:52 AM 59.8°F15.4°C 44.6°F7.0°C 57% 18.2 mph WNW29.3 kmh WNW 22.0 mph35.4 kmh 29.86 in1011.2 mb 0.00 in0.0 mm 0.00 in/hr0.0 mm/hr 0.00 in0.0 mm
07:54 AM 60.8°F16.0°C 45.5°F7.5°C 57% 11.7 mph NW18.8 kmh NW 20.0 mph32.2 kmh 29.86 in1011.2 mb 0.00 in0.0 mm 0.00 in/hr0.0 mm/hr 0.00 in0.0 mm
07:56 AM 60.8°F16.0°C 45.5°F7.5°C 57% 23.4 mph NW37.7 kmh NW 19.0 mph30.6 kmh 29.86 in1011.2 mb 0.00 in0.0 mm 0.00 in/hr0.0 mm/hr 0.00 in0.0 mm
07:58 AM 60.8°F16.0°C 45.5°F7.5°C 57% 7.8 mph NNW12.6 kmh NNW 20.0 mph32.2 kmh 29.86 in1011.2 mb 0.00 in0.0 mm 0.00 in/hr0.0 mm/hr 0.00 in0.0 mm
08:00 AM 60.8°F16.0°C 45.5°F7.5°C 57% 20.8 mph NW33.5 kmh NW 22.0 mph35.4 kmh 29.86 in1011.2 mb 0.00 in0.0 mm 0.00 in/hr0.0 mm/hr 0.00 in0.0 mm
08:02 AM 60.8°F16.0°C 45.5°F7.5°C 57% 20.8 mph NW33.5 kmh NW 24.0 mph38.6 kmh 29.86 in1011.2 mb 0.00 in0.0 mm 0.00 in/hr0.0 mm/hr 0.00 in0.0 mm
08:04 AM 60.8°F16.0°C 46.0°F7.8°C 58% 13.0 mph NW20.9 kmh NW 22.0 mph35.4 kmh 29.86 in1011.2 mb 0.00 in0.0 mm 0.00 in/hr0.0 mm/hr 0.00 in0.0 mm
08:06 AM 60.8°F16.0°C 46.4°F8.0°C 59% 28.6 mph NW46.0 kmh NW 22.0 mph35.4 kmh 29.86 in1011.2 mb 0.00 in0.0 mm 0.00 in/hr0.0 mm/hr 0.00 in0.0 mm
08:08 AM 60.8°F16.0°C 46.9°F8.3°C 60% 16.9 mph NW27.2 kmh NW 23.0 mph37.0 kmh 29.86 in1011.2 mb 0.00 in0.0 mm 0.00 in/hr0.0 mm/hr 0.00 in0.0 mm
08:10 AM 60.8°F16.0°C 46.9°F8.3°C 60% 20.8 mph NW33.5 kmh NW 25.0 mph40.2 kmh 29.87 in1011.5 mb 0.00 in0.0 mm 0.00 in/hr0.0 mm/hr 0.00 in0.0 mm
08:12 AM 60.8°F16.0°C 47.7°F8.7°C 62% 15.6 mph NNE25.1 kmh NNE 24.0 mph38.6 kmh 29.87 in1011.5 mb 0.00 in0.0 mm 0.00 in/hr0.0 mm/hr 0.00 in0.0 mm
08:14 AM 60.8°F16.0°C 47.7°F8.7°C 62% 11.7 mph N18.8 kmh N 17.0 mph27.4 kmh 29.87 in1011.5 mb 0.00 in0.0 mm 0.00 in/hr0.0 mm/hr 0.00 in0.0 mm
08:16 AM 60.8°F16.0°C 48.2°F9.0°C 63% 9.1 mph ENE14.6 kmh ENE 16.0 mph25.7 kmh 29.87 in1011.5 mb 0.00 in0.0 mm 0.00 in/hr0.0 mm/hr 0.00 in0.0 mm
08:18 AM 61.9°F16.6°C 48.7°F9.3°C 62% 23.4 mph NNW37.7 kmh NNW 23.0 mph37.0 kmh 29.87 in1011.5 mb 0.00 in0.0 mm 0.00 in/hr0.0 mm/hr 0.00 in0.0 mm
08:20 AM 60.8°F16.0°C 48.2°F9.0°C 63% 7.8 mph NE12.6 kmh NE 20.0 mph32.2 kmh 29.87 in1011.5 mb 0.00 in0.0 mm 0.00 in/hr0.0 mm/hr 0.00 in0.0 mm
08:22 AM 60.8°F16.0°C 48.2°F9.0°C 63% 11.7 mph NW18.8 kmh NW 21.0 mph33.8 kmh 29.87 in1011.5 mb 0.00 in0.0 mm 0.00 in/hr0.0 mm/hr 0.00 in0.0 mm
08:24 AM 61.9°F16.6°C 49.1°F9.5°C 63% 10.4 mph NNE16.7 kmh NNE 20.0 mph32.2 kmh 29.87 in1011.5 mb 0.00 in0.0 mm 0.00 in/hr0.0 mm/hr 0.00 in0.0 mm
08:26 AM 61.9°F16.6°C 49.1°F9.5°C 63% 16.9 mph N27.2 kmh N 21.0 mph33.8 kmh 29.87 in1011.5 mb 0.00 in0.0 mm 0.00 in/hr0.0 mm/hr 0.00 in0.0 mm
08:28 AM 61.9°F16.6°C 48.7°F9.3°C 62% 14.3 mph N23.0 kmh N 20.0 mph32.2 kmh 29.87 in1011.5 mb 0.00 in0.0 mm 0.00 in/hr0.0 mm/hr 0.00 in0.0 mm
08:30 AM 61.9°F16.6°C 48.7°F9.3°C 62% 20.8 mph NW33.5 kmh NW 20.0 mph32.2 kmh 29.88 in1011.9 mb 0.00 in0.0 mm 0.00 in/hr0.0 mm/hr 0.00 in0.0 mm
08:32 AM 61.9°F16.6°C 49.1°F9.5°C 63% 14.3 mph NW23.0 kmh NW 13.0 mph20.9 kmh 29.88 in1011.9 mb 0.00 in0.0 mm 0.00 in/hr0.0 mm/hr 0.00 in0.0 mm
08:34 AM 62.9°F17.2°C 50.1°F10.1°C 63% 19.5 mph NW31.4 kmh NW 17.0 mph27.4 kmh 29.88 in1011.9 mb 0.00 in0.0 mm 0.00 in/hr0.0 mm/hr 0.00 in0.0 mm
08:36 AM 62.9°F17.2°C 50.1°F10.1°C 63% 9.1 mph N14.6 kmh N 17.0 mph27.4 kmh 29.88 in1011.9 mb 0.00 in0.0 mm 0.00 in/hr0.0 mm/hr 0.00 in0.0 mm
08:38 AM 62.9°F17.2°C 50.5°F10.3°C 64% 23.4 mph NW37.7 kmh NW 25.0 mph40.2 kmh 29.88 in1011.9 mb 0.00 in0.0 mm 0.00 in/hr0.0 mm/hr 0.00 in0.0 mm
08:40 AM 62.9°F17.2°C 50.5°F10.3°C 64% 18.2 mph N29.3 kmh N 27.0 mph43.5 kmh 29.87 in1011.5 mb 0.00 in0.0 mm 0.00 in/hr0.0 mm/hr 0.00 in0.0 mm
08:42 AM 62.9°F17.2°C 50.5°F10.3°C 64% 18.2 mph NNW29.3 kmh NNW 20.0 mph32.2 kmh 29.87 in1011.5 mb 0.00 in0.0 mm 0.00 in/hr0.0 mm/hr 0.00 in0.0 mm
08:44 AM 62.9°F17.2°C 50.5°F10.3°C 64% 10.4 mph N16.7 kmh N 15.0 mph24.1 kmh 29.87 in1011.5 mb 0.00 in0.0 mm 0.00 in/hr0.0 mm/hr 0.00 in0.0 mm
08:46 AM 62.9°F17.2°C 51.0°F10.6°C 65% 10.4 mph NW16.7 kmh NW 31.0 mph49.9 kmh 29.87 in1011.5 mb 0.00 in0.0 mm 0.00 in/hr0.0 mm/hr 0.00 in0.0 mm
08:48 AM 62.9°F17.2°C 51.0°F10.6°C 65% 16.9 mph N27.2 kmh N 29.0 mph46.7 kmh 29.87 in1011.5 mb 0.00 in0.0 mm 0.00 in/hr0.0 mm/hr 0.00 in0.0 mm
08:50 AM 62.9°F17.2°C 51.0°F10.6°C 65% 19.5 mph N31.4 kmh N 18.0 mph29.0 kmh 29.88 in1011.9 mb 0.00 in0.0 mm 0.00 in/hr0.0 mm/hr 0.00 in0.0 mm
08:52 AM 62.9°F17.2°C 50.5°F10.3°C 64% 11.7 mph W18.8 kmh W 17.0 mph27.4 kmh 29.88 in1011.9 mb 0.00 in0.0 mm 0.00 in/hr0.0 mm/hr 0.00 in0.0 mm
08:54 AM 62.9°F17.2°C 51.0°F10.6°C 65% 10.4 mph NW16.7 kmh NW 31.0 mph49.9 kmh 29.88 in1011.9 mb 0.00 in0.0 mm 0.00 in/hr0.0 mm/hr 0.00 in0.0 mm
08:56 AM 62.9°F17.2°C 51.4°F10.8°C 66% 14.3 mph NNW23.0 kmh NNW 24.0 mph38.6 kmh 29.88 in1011.9 mb 0.00 in0.0 mm 0.00 in/hr0.0 mm/hr 0.00 in0.0 mm
08:58 AM 62.9°F17.2°C 51.4°F10.8°C 66% 13.0 mph WNW20.9 kmh WNW 26.0 mph41.8 kmh 29.88 in1011.9 mb 0.00 in0.0 mm 0.00 in/hr0.0 mm/hr 0.00 in0.0 mm
09:00 AM 62.9°F17.2°C 51.0°F10.6°C 65% 13.0 mph N20.9 kmh N 31.0 mph49.9 kmh 29.88 in1011.9 mb 0.00 in0.0 mm 0.00 in/hr0.0 mm/hr 0.00 in0.0 mm
09:02 AM 62.9°F17.2°C 51.0°F10.6°C 65% 7.8 mph W12.6 kmh W 21.0 mph33.8 kmh 29.88 in1011.9 mb 0.00 in0.0 mm 0.00 in/hr0.0 mm/hr 0.00 in0.0 mm
09:04 AM 62.9°F17.2°C 51.0°F10.6°C 65% 27.3 mph NW43.9 kmh NW 23.0 mph37.0 kmh 29.88 in1011.9 mb 0.00 in0.0 mm 0.00 in/hr0.0 mm/hr 0.00 in0.0 mm
09:06 AM 62.9°F17.2°C 51.0°F10.6°C 65% 27.3 mph NW43.9 kmh NW 24.0 mph38.6 kmh 29.88 in1011.9 mb 0.00 in0.0 mm 0.00 in/hr0.0 mm/hr 0.00 in0.0 mm
09:08 AM 62.9°F17.2°C 51.0°F10.6°C 65% 19.5 mph NW31.4 kmh NW 18.0 mph29.0 kmh 29.88 in1011.9 mb 0.00 in0.0 mm 0.00 in/hr0.0 mm/hr 0.00 in0.0 mm
09:10 AM 62.9°F17.2°C 51.0°F10.6°C 65% 9.1 mph NNE14.6 kmh NNE 18.0 mph29.0 kmh 29.89 in1012.2 mb 0.00 in0.0 mm 0.00 in/hr0.0 mm/hr 0.00 in0.0 mm
09:12 AM 63.9°F17.7°C 51.9°F11.1°C 65% 13.0 mph NNW20.9 kmh NNW 18.0 mph29.0 kmh 29.89 in1012.2 mb 0.00 in0.0 mm 0.00 in/hr0.0 mm/hr 0.00 in0.0 mm
09:14 AM 63.9°F17.7°C 51.9°F11.1°C 65% 9.1 mph NW14.6 kmh NW 28.0 mph45.1 kmh 29.89 in1012.2 mb 0.00 in0.0 mm 0.00 in/hr0.0 mm/hr 0.00 in0.0 mm
09:16 AM 63.9°F17.7°C 51.5°F10.8°C 64% 20.8 mph N33.5 kmh N 22.0 mph35.4 kmh 29.89 in1012.2 mb 0.00 in0.0 mm 0.00 in/hr0.0 mm/hr 0.00 in0.0 mm
09:18 AM 63.9°F17.7°C 51.9°F11.1°C 65% 23.4 mph NW37.7 kmh NW 20.0 mph32.2 kmh 29.89 in1012.2 mb 0.00 in0.0 mm 0.00 in/hr0.0 mm/hr 0.00 in0.0 mm
09:20 AM 65.0°F18.3°C 52.5°F11.4°C 64% 5.2 mph NNW8.4 kmh NNW 17.0 mph27.4 kmh 29.89 in1012.2 mb 0.00 in0.0 mm 0.00 in/hr0.0 mm/hr 0.00 in0.0 mm
09:22 AM 65.0°F18.3°C 52.5°F11.4°C 64% 16.9 mph NNE27.2 kmh NNE 25.0 mph40.2 kmh 29.89 in1012.2 mb 0.00 in0.0 mm 0.00 in/hr0.0 mm/hr 0.00 in0.0 mm
09:24 AM 65.0°F18.3°C 52.5°F11.4°C 64% 16.9 mph WNW27.2 kmh WNW 23.0 mph37.0 kmh 29.89 in1012.2 mb 0.00 in0.0 mm 0.00 in/hr0.0 mm/hr 0.00 in0.0 mm
09:26 AM 63.9°F17.7°C 51.5°F10.8°C 64% 13.0 mph NNW20.9 kmh NNW 21.0 mph33.8 kmh 29.89 in1012.2 mb 0.00 in0.0 mm 0.00 in/hr0.0 mm/hr 0.00 in0.0 mm
09:28 AM 63.9°F17.7°C 51.9°F11.1°C 65% 13.0 mph N20.9 kmh N 26.0 mph41.8 kmh 29.89 in1012.2 mb 0.00 in0.0 mm 0.00 in/hr0.0 mm/hr 0.00 in0.0 mm
09:30 AM 63.9°F17.7°C 51.9°F11.1°C 65% 18.2 mph NNW29.3 kmh NNW 23.0 mph37.0 kmh 29.89 in1012.2 mb 0.00 in0.0 mm 0.00 in/hr0.0 mm/hr 0.00 in0.0 mm
09:32 AM 65.0°F18.3°C 52.9°F11.6°C 65% 23.4 mph N37.7 kmh N 19.0 mph30.6 kmh 29.89 in1012.2 mb 0.00 in0.0 mm 0.00 in/hr0.0 mm/hr 0.00 in0.0 mm
09:34 AM 65.0°F18.3°C 52.5°F11.4°C 64% 14.3 mph N23.0 kmh N 17.0 mph27.4 kmh 29.89 in1012.2 mb 0.00 in0.0 mm 0.00 in/hr0.0 mm/hr 0.00 in0.0 mm
09:36 AM 65.0°F18.3°C 52.1°F11.2°C 63% 18.2 mph N29.3 kmh N 21.0 mph33.8 kmh 29.89 in1012.2 mb 0.00 in0.0 mm 0.00 in/hr0.0 mm/hr 0.00 in0.0 mm
09:38 AM 65.0°F18.3°C 52.1°F11.2°C 63% 18.2 mph NW29.3 kmh NW 28.0 mph45.1 kmh 29.89 in1012.2 mb 0.00 in0.0 mm 0.00 in/hr0.0 mm/hr 0.00 in0.0 mm
09:40 AM 65.0°F18.3°C 52.1°F11.2°C 63% 13.0 mph N20.9 kmh N 25.0 mph40.2 kmh 29.89 in1012.2 mb 0.00 in0.0 mm 0.00 in/hr0.0 mm/hr 0.00 in0.0 mm
09:42 AM 65.0°F18.3°C 52.5°F11.4°C 64% 11.7 mph NW18.8 kmh NW 24.0 mph38.6 kmh 29.89 in1012.2 mb 0.00 in0.0 mm 0.00 in/hr0.0 mm/hr 0.00 in0.0 mm
09:44 AM 65.0°F18.3°C 52.1°F11.2°C 63% 10.4 mph NNW16.7 kmh NNW 19.0 mph30.6 kmh 29.89 in1012.2 mb 0.00 in0.0 mm 0.00 in/hr0.0 mm/hr 0.00 in0.0 mm
09:46 AM 65.0°F18.3°C 51.6°F10.9°C 62% 14.3 mph NNW23.0 kmh NNW 23.0 mph37.0 kmh 29.89 in1012.2 mb 0.00 in0.0 mm 0.00 in/hr0.0 mm/hr 0.00 in0.0 mm
09:48 AM 66.0°F18.9°C 52.6°F11.4°C 62% 18.2 mph N29.3 kmh N 23.0 mph37.0 kmh 29.89 in1012.2 mb 0.00 in0.0 mm 0.00 in/hr0.0 mm/hr 0.00 in0.0 mm
09:50 AM 66.0°F18.9°C 52.6°F11.4°C 62% 22.1 mph N35.6 kmh N 25.0 mph40.2 kmh 29.90 in1012.5 mb 0.00 in0.0 mm 0.00 in/hr0.0 mm/hr 0.00 in0.0 mm
09:52 AM 66.0°F18.9°C 52.6°F11.4°C 62% 10.4 mph NNW16.7 kmh NNW 21.0 mph33.8 kmh 29.90 in1012.5 mb 0.00 in0.0 mm 0.00 in/hr0.0 mm/hr 0.00 in0.0 mm
09:54 AM 66.0°F18.9°C 52.6°F11.4°C 62% 19.5 mph N31.4 kmh N 23.0 mph37.0 kmh 29.90 in1012.5 mb 0.00 in0.0 mm 0.00 in/hr0.0 mm/hr 0.00 in0.0 mm
09:56 AM 66.0°F18.9°C 52.6°F11.4°C 62% 9.1 mph NNW14.6 kmh NNW 23.0 mph37.0 kmh 29.90 in1012.5 mb 0.00 in0.0 mm 0.00 in/hr0.0 mm/hr 0.00 in0.0 mm
09:58 AM 66.0°F18.9°C 52.2°F11.2°C 61% 14.3 mph N23.0 kmh N 22.0 mph35.4 kmh 29.90 in1012.5 mb 0.00 in0.0 mm 0.00 in/hr0.0 mm/hr 0.00 in0.0 mm
10:00 AM 66.0°F18.9°C 52.2°F11.2°C 61% 15.6 mph NE25.1 kmh NE 23.0 mph37.0 kmh 29.89 in1012.2 mb 0.00 in0.0 mm 0.00 in/hr0.0 mm/hr 0.00 in0.0 mm
10:02 AM 66.0°F18.9°C 52.6°F11.4°C 62% 11.7 mph N18.8 kmh N 23.0 mph37.0 kmh 29.89 in1012.2 mb 0.00 in0.0 mm 0.00 in/hr0.0 mm/hr 0.00 in0.0 mm
10:04 AM 66.0°F18.9°C 52.2°F11.2°C 61% 20.8 mph N33.5 kmh N 24.0 mph38.6 kmh 29.89 in1012.2 mb 0.00 in0.0 mm 0.00 in/hr0.0 mm/hr 0.00 in0.0 mm
10:06 AM 66.0°F18.9°C 52.6°F11.4°C 62% 11.7 mph N18.8 kmh N 21.0 mph33.8 kmh 29.89 in1012.2 mb 0.00 in0.0 mm 0.00 in/hr0.0 mm/hr 0.00 in0.0 mm
10:08 AM 67.0°F19.4°C 52.2°F11.2°C 59% 18.2 mph NNE29.3 kmh NNE 30.0 mph48.3 kmh 29.89 in1012.2 mb 0.00 in0.0 mm 0.00 in/hr0.0 mm/hr 0.00 in0.0 mm
10:10 AM 67.0°F19.4°C 52.2°F11.2°C 59% 20.8 mph NNE33.5 kmh NNE 24.0 mph38.6 kmh 29.89 in1012.2 mb 0.00 in0.0 mm 0.00 in/hr0.0 mm/hr 0.00 in0.0 mm
10:12 AM 67.0°F19.4°C 52.2°F11.2°C 59% 13.0 mph NE20.9 kmh NE 22.0 mph35.4 kmh 29.89 in1012.2 mb 0.00 in0.0 mm 0.00 in/hr0.0 mm/hr 0.00 in0.0 mm
10:14 AM 67.0°F19.4°C 51.8°F11.0°C 58% 10.4 mph N16.7 kmh N 21.0 mph33.8 kmh 29.89 in1012.2 mb 0.00 in0.0 mm 0.00 in/hr0.0 mm/hr 0.00 in0.0 mm
10:16 AM 67.0°F19.4°C 52.2°F11.2°C 59% 11.7 mph N18.8 kmh N 30.0 mph48.3 kmh 29.89 in1012.2 mb 0.00 in0.0 mm 0.00 in/hr0.0 mm/hr 0.00 in0.0 mm
10:18 AM 67.0°F19.4°C 51.3°F10.7°C 57% 16.9 mph N27.2 kmh N 19.0 mph30.6 kmh 29.89 in1012.2 mb 0.00 in0.0 mm 0.00 in/hr0.0 mm/hr 0.00 in0.0 mm
10:20 AM 67.0°F19.4°C 51.3°F10.7°C 57% 13.0 mph ENE20.9 kmh ENE 27.0 mph43.5 kmh 29.89 in1012.2 mb 0.00 in0.0 mm 0.00 in/hr0.0 mm/hr 0.00 in0.0 mm
10:22 AM 67.0°F19.4°C 51.8°F11.0°C 58% 13.0 mph NE20.9 kmh NE 20.0 mph32.2 kmh 29.89 in1012.2 mb 0.00 in0.0 mm 0.00 in/hr0.0 mm/hr 0.00 in0.0 mm
10:24 AM 67.0°F19.4°C 52.2°F11.2°C 59% 6.5 mph NE10.5 kmh NE 34.0 mph54.7 kmh 29.89 in1012.2 mb 0.00 in0.0 mm 0.00 in/hr0.0 mm/hr 0.00 in0.0 mm
10:26 AM 67.0°F19.4°C 51.3°F10.7°C 57% 19.5 mph N31.4 kmh N 20.0 mph32.2 kmh 29.89 in1012.2 mb 0.00 in0.0 mm 0.00 in/hr0.0 mm/hr 0.00 in0.0 mm
10:28 AM 68.0°F20.0°C 52.7°F11.5°C 58% 19.5 mph N31.4 kmh N 20.0 mph32.2 kmh 29.89 in1012.2 mb 0.00 in0.0 mm 0.00 in/hr0.0 mm/hr 0.00 in0.0 mm
10:30 AM 67.0°F19.4°C 51.3°F10.7°C 57% 13.0 mph NNW20.9 kmh NNW 26.0 mph41.8 kmh 29.89 in1012.2 mb 0.00 in0.0 mm 0.00 in/hr0.0 mm/hr 0.00 in0.0 mm
10:32 AM 67.0°F19.4°C 51.3°F10.7°C 57% 19.5 mph NNE31.4 kmh NNE 31.0 mph49.9 kmh 29.89 in1012.2 mb 0.00 in0.0 mm 0.00 in/hr0.0 mm/hr 0.00 in0.0 mm
10:34 AM 67.0°F19.4°C 51.3°F10.7°C 57% 24.7 mph NE39.8 kmh NE 27.0 mph43.5 kmh 29.89 in1012.2 mb 0.00 in0.0 mm 0.00 in/hr0.0 mm/hr 0.00 in0.0 mm
10:36 AM 67.0°F19.4°C 51.8°F11.0°C 58% 13.0 mph N20.9 kmh N 24.0 mph38.6 kmh 29.89 in1012.2 mb 0.00 in0.0 mm 0.00 in/hr0.0 mm/hr 0.00 in0.0 mm
10:38 AM 68.0°F20.0°C 52.7°F11.5°C 58% 10.4 mph NNE16.7 kmh NNE 17.0 mph27.4 kmh 29.89 in1012.2 mb 0.00 in0.0 mm 0.00 in/hr0.0 mm/hr 0.00 in0.0 mm
10:40 AM 69.1°F20.6°C 52.7°F11.5°C 56% 13.0 mph N20.9 kmh N 15.0 mph24.1 kmh 29.89 in1012.2 mb 0.00 in0.0 mm 0.00 in/hr0.0 mm/hr 0.00 in0.0 mm
10:42 AM 69.1°F20.6°C 52.2°F11.2°C 55% 11.7 mph NW18.8 kmh NW 19.0 mph30.6 kmh 29.89 in1012.2 mb 0.00 in0.0 mm 0.00 in/hr0.0 mm/hr 0.00 in0.0 mm
10:44 AM 69.1°F20.6°C 52.2°F11.2°C 55% 13.0 mph N20.9 kmh N 21.0 mph33.8 kmh 29.89 in1012.2 mb 0.00 in0.0 mm 0.00 in/hr0.0 mm/hr 0.00 in0.0 mm
10:46 AM 69.1°F20.6°C 52.2°F11.2°C 55% 16.9 mph N27.2 kmh N 26.0 mph41.8 kmh 29.89 in1012.2 mb 0.00 in0.0 mm 0.00 in/hr0.0 mm/hr 0.00 in0.0 mm
10:48 AM 69.1°F20.6°C 52.2°F11.2°C 55% 13.0 mph N20.9 kmh N 17.0 mph27.4 kmh 29.89 in1012.2 mb 0.00 in0.0 mm 0.00 in/hr0.0 mm/hr 0.00 in0.0 mm
10:50 AM 70.1°F21.2°C 52.7°F11.5°C 54% 23.4 mph NNE37.7 kmh NNE 19.0 mph30.6 kmh 29.89 in1012.2 mb 0.00 in0.0 mm 0.00 in/hr0.0 mm/hr 0.00 in0.0 mm
10:52 AM 69.1°F20.6°C 51.8°F11.0°C 54% 18.2 mph N29.3 kmh N 27.0 mph43.5 kmh 29.89 in1012.2 mb 0.00 in0.0 mm 0.00 in/hr0.0 mm/hr 0.00 in0.0 mm
10:54 AM 69.1°F20.6°C 51.8°F11.0°C 54% 16.9 mph NE27.2 kmh NE 21.0 mph33.8 kmh 29.89 in1012.2 mb 0.00 in0.0 mm 0.00 in/hr0.0 mm/hr 0.00 in0.0 mm
10:56 AM 69.1°F20.6°C 51.2°F10.7°C 53% 15.6 mph N25.1 kmh N 26.0 mph41.8 kmh 29.89 in1012.2 mb 0.00 in0.0 mm 0.00 in/hr0.0 mm/hr 0.00 in0.0 mm
10:58 AM 69.1°F20.6°C 51.8°F11.0°C 54% 18.2 mph NNE29.3 kmh NNE 24.0 mph38.6 kmh 29.89 in1012.2 mb 0.00 in0.0 mm 0.00 in/hr0.0 mm/hr 0.00 in0.0 mm
11:00 AM 68.0°F20.0°C 50.3°F10.2°C 53% 20.8 mph NNE33.5 kmh NNE 26.0 mph41.8 kmh 29.89 in1012.2 mb 0.00 in0.0 mm 0.00 in/hr0.0 mm/hr 0.00 in0.0 mm
11:02 AM 68.0°F20.0°C 50.3°F10.2°C 53% 18.2 mph N29.3 kmh N 22.0 mph35.4 kmh 29.89 in1012.2 mb 0.00 in0.0 mm 0.00 in/hr0.0 mm/hr 0.00 in0.0 mm
11:04 AM 68.0°F20.0°C 51.3°F10.7°C 55% 13.0 mph NNW20.9 kmh NNW 17.0 mph27.4 kmh 29.89 in1012.2 mb 0.00 in0.0 mm 0.00 in/hr0.0 mm/hr 0.00 in0.0 mm
11:08 AM 68.0°F20.0°C 50.8°F10.4°C 54% 14.3 mph N23.0 kmh N 25.0 mph40.2 kmh 29.89 in1012.2 mb 0.00 in0.0 mm 0.00 in/hr0.0 mm/hr 0.00 in0.0 mm
11:10 AM 68.0°F20.0°C 51.3°F10.7°C 55% 9.1 mph N14.6 kmh N 18.0 mph29.0 kmh 29.91 in1012.9 mb 0.00 in0.0 mm 0.00 in/hr0.0 mm/hr 0.00 in0.0 mm
11:12 AM 69.1°F20.6°C 51.2°F10.7°C 53% 19.5 mph NNE31.4 kmh NNE 19.0 mph30.6 kmh 29.91 in1012.9 mb 0.00 in0.0 mm 0.00 in/hr0.0 mm/hr 0.00 in0.0 mm
11:14 AM 69.1°F20.6°C 51.2°F10.7°C 53% 10.4 mph N16.7 kmh N 19.0 mph30.6 kmh 29.91 in1012.9 mb 0.00 in0.0 mm 0.00 in/hr0.0 mm/hr 0.00 in0.0 mm
11:16 AM 69.1°F20.6°C 50.2°F10.1°C 51% 20.8 mph NW33.5 kmh NW 23.0 mph37.0 kmh 26.85 in909.2 mb 0.00 in0.0 mm 0.00 in/hr0.0 mm/hr 0.00 in0.0 mm
11:18 AM 69.1°F20.6°C 50.2°F10.1°C 51% 24.7 mph NNW39.8 kmh NNW 22.0 mph35.4 kmh 26.85 in909.2 mb 0.00 in0.0 mm 0.00 in/hr0.0 mm/hr 0.00 in0.0 mm
11:20 AM 69.1°F20.6°C 50.2°F10.1°C 51% 16.9 mph N27.2 kmh N 25.0 mph40.2 kmh 26.84 in908.9 mb 0.00 in0.0 mm 0.00 in/hr0.0 mm/hr 0.00 in0.0 mm
11:22 AM 70.1°F21.2°C 51.2°F10.7°C 51% 9.1 mph N14.6 kmh N 19.0 mph30.6 kmh 26.84 in908.9 mb 0.00 in0.0 mm 0.00 in/hr0.0 mm/hr 0.00 in0.0 mm
11:24 AM 70.1°F21.2°C 50.6°F10.3°C 50% 18.2 mph N29.3 kmh N 21.0 mph33.8 kmh 26.84 in908.9 mb 0.00 in0.0 mm 0.00 in/hr0.0 mm/hr 0.00 in0.0 mm
11:26 AM 70.1°F21.2°C 50.6°F10.3°C 50% 10.4 mph N16.7 kmh N 17.0 mph27.4 kmh 26.84 in908.9 mb 0.00 in0.0 mm 0.00 in/hr0.0 mm/hr 0.00 in0.0 mm
11:28 AM 70.1°F21.2°C 50.6°F10.3°C 50% 7.8 mph NE12.6 kmh NE 16.0 mph25.7 kmh 26.84 in908.9 mb 0.00 in0.0 mm 0.00 in/hr0.0 mm/hr 0.00 in0.0 mm
11:30 AM 70.1°F21.2°C 51.2°F10.7°C 51% 13.0 mph N20.9 kmh N 15.0 mph24.1 kmh 26.84 in908.9 mb 0.00 in0.0 mm 0.00 in/hr0.0 mm/hr 0.00 in0.0 mm
11:32 AM 71.1°F21.7°C 51.6°F10.9°C 50% 14.3 mph NNE23.0 kmh NNE 18.0 mph29.0 kmh 26.84 in908.9 mb 0.00 in0.0 mm 0.00 in/hr0.0 mm/hr 0.00 in0.0 mm
11:34 AM 71.1°F21.7°C 50.5°F10.3°C 48% 23.4 mph N37.7 kmh N 18.0 mph29.0 kmh 26.84 in908.9 mb 0.00 in0.0 mm 0.00 in/hr0.0 mm/hr 0.00 in0.0 mm
11:36 AM 71.1°F21.7°C 50.5°F10.3°C 48% 11.7 mph N18.8 kmh N 22.0 mph35.4 kmh 26.84 in908.9 mb 0.00 in0.0 mm 0.00 in/hr0.0 mm/hr 0.00 in0.0 mm
11:38 AM 71.1°F21.7°C 50.5°F10.3°C 48% 18.2 mph N29.3 kmh N 19.0 mph30.6 kmh 26.84 in908.9 mb 0.00 in0.0 mm 0.00 in/hr0.0 mm/hr 0.00 in0.0 mm
11:40 AM 71.1°F21.7°C 50.5°F10.3°C 48% 11.7 mph WNW18.8 kmh WNW 12.0 mph19.3 kmh 26.83 in908.6 mb 0.00 in0.0 mm 0.00 in/hr0.0 mm/hr 0.00 in0.0 mm
11:42 AM 71.1°F21.7°C 49.9°F9.9°C 47% 20.8 mph N33.5 kmh N 23.0 mph37.0 kmh 26.83 in908.6 mb 0.00 in0.0 mm 0.00 in/hr0.0 mm/hr 0.00 in0.0 mm
11:44 AM 71.1°F21.7°C 51.0°F10.6°C 49% 14.3 mph NW23.0 kmh NW 19.0 mph30.6 kmh 26.83 in908.6 mb 0.00 in0.0 mm 0.00 in/hr0.0 mm/hr 0.00 in0.0 mm
11:46 AM 71.1°F21.7°C 50.5°F10.3°C 48% 11.7 mph NW18.8 kmh NW 18.0 mph29.0 kmh 26.83 in908.6 mb 0.00 in0.0 mm 0.00 in/hr0.0 mm/hr 0.00 in0.0 mm
11:48 AM 71.1°F21.7°C 49.9°F9.9°C 47% 6.5 mph NNE10.5 kmh NNE 20.0 mph32.2 kmh 26.83 in908.6 mb 0.00 in0.0 mm 0.00 in/hr0.0 mm/hr 0.00 in0.0 mm
11:50 AM 71.1°F21.7°C 49.9°F9.9°C 47% 23.4 mph N37.7 kmh N 20.0 mph32.2 kmh 26.83 in908.6 mb 0.00 in0.0 mm 0.00 in/hr0.0 mm/hr 0.00 in0.0 mm
11:52 AM 71.1°F21.7°C 49.9°F9.9°C 47% 23.4 mph NNE37.7 kmh NNE 18.0 mph29.0 kmh 26.83 in908.6 mb 0.00 in0.0 mm 0.00 in/hr0.0 mm/hr 0.00 in0.0 mm
11:54 AM 71.1°F21.7°C 50.5°F10.3°C 48% 9.1 mph NNE14.6 kmh NNE 20.0 mph32.2 kmh 26.83 in908.6 mb 0.00 in0.0 mm 0.00 in/hr0.0 mm/hr 0.00 in0.0 mm
11:56 AM 72.2°F22.3°C 51.4°F10.8°C 48% 9.1 mph NNW14.6 kmh NNW 14.0 mph22.5 kmh 26.83 in908.6 mb 0.00 in0.0 mm 0.00 in/hr0.0 mm/hr 0.00 in0.0 mm
11:58 AM 72.2°F22.3°C 50.8°F10.4°C 47% 11.7 mph N18.8 kmh N 13.0 mph20.9 kmh 26.83 in908.6 mb 0.00 in0.0 mm 0.00 in/hr0.0 mm/hr 0.00 in0.0 mm
12:00 PM 72.2°F22.3°C 50.3°F10.2°C 46% 9.1 mph NE14.6 kmh NE 17.0 mph27.4 kmh 26.83 in908.6 mb 0.00 in0.0 mm 0.00 in/hr0.0 mm/hr 0.00 in0.0 mm
12:02 PM 73.2°F22.9°C 51.2°F10.7°C 46% 11.7 mph N18.8 kmh N 11.0 mph17.7 kmh 26.83 in908.6 mb 0.00 in0.0 mm 0.00 in/hr0.0 mm/hr 0.00 in0.0 mm
12:04 PM 72.2°F22.3°C 50.3°F10.2°C 46% 11.7 mph NNE18.8 kmh NNE 19.0 mph30.6 kmh 26.83 in908.6 mb 0.00 in0.0 mm 0.00 in/hr0.0 mm/hr 0.00 in0.0 mm
12:06 PM 72.2°F22.3°C 50.3°F10.2°C 46% 11.7 mph N18.8 kmh N 19.0 mph30.6 kmh 26.83 in908.6 mb 0.00 in0.0 mm 0.00 in/hr0.0 mm/hr 0.00 in0.0 mm
12:08 PM 72.2°F22.3°C 50.3°F10.2°C 46% 13.0 mph NNW20.9 kmh NNW 18.0 mph29.0 kmh 26.83 in908.6 mb 0.00 in0.0 mm 0.00 in/hr0.0 mm/hr 0.00 in0.0 mm
12:10 PM 72.2°F22.3°C 49.7°F9.8°C 45% 14.3 mph NE23.0 kmh NE 25.0 mph40.2 kmh 26.82 in908.2 mb 0.00 in0.0 mm 0.00 in/hr0.0 mm/hr 0.00 in0.0 mm
12:12 PM 72.2°F22.3°C 50.3°F10.2°C 46% 13.0 mph N20.9 kmh N 18.0 mph29.0 kmh 26.82 in908.2 mb 0.00 in0.0 mm 0.00 in/hr0.0 mm/hr 0.00 in0.0 mm
12:14 PM 72.2°F22.3°C 50.3°F10.2°C 46% 10.4 mph N16.7 kmh N 14.0 mph22.5 kmh 26.82 in908.2 mb 0.00 in0.0 mm 0.00 in/hr0.0 mm/hr 0.00 in0.0 mm
12:16 PM 72.2°F22.3°C 50.3°F10.2°C 46% 13.0 mph N20.9 kmh N 18.0 mph29.0 kmh 26.82 in908.2 mb 0.00 in0.0 mm 0.00 in/hr0.0 mm/hr 0.00 in0.0 mm
12:18 PM 72.2°F22.3°C 50.3°F10.2°C 46% 10.4 mph NE16.7 kmh NE 23.0 mph37.0 kmh 26.82 in908.2 mb 0.00 in0.0 mm 0.00 in/hr0.0 mm/hr 0.00 in0.0 mm
12:20 PM 72.2°F22.3°C 49.7°F9.8°C 45% 22.1 mph N35.6 kmh N 19.0 mph30.6 kmh 26.82 in908.2 mb 0.00 in0.0 mm 0.00 in/hr0.0 mm/hr 0.00 in0.0 mm
12:22 PM 72.2°F22.3°C 49.7°F9.8°C 45% 11.7 mph NNE18.8 kmh NNE 18.0 mph29.0 kmh 26.82 in908.2 mb 0.00 in0.0 mm 0.00 in/hr0.0 mm/hr 0.00 in0.0 mm
12:24 PM 72.2°F22.3°C 49.7°F9.8°C 45% 16.9 mph NE27.2 kmh NE 16.0 mph25.7 kmh 26.82 in908.2 mb 0.00 in0.0 mm 0.00 in/hr0.0 mm/hr 0.00 in0.0 mm
12:26 PM 72.2°F22.3°C 50.3°F10.2°C 46% 15.6 mph NW25.1 kmh NW 19.0 mph30.6 kmh 26.82 in908.2 mb 0.00 in0.0 mm 0.00 in/hr0.0 mm/hr 0.00 in0.0 mm
12:28 PM 72.2°F22.3°C 48.5°F9.2°C 43% 20.8 mph N33.5 kmh N 22.0 mph35.4 kmh 26.82 in908.2 mb 0.00 in0.0 mm 0.00 in/hr0.0 mm/hr 0.00 in0.0 mm
12:30 PM 73.2°F22.9°C 50.0°F10.0°C 44% 18.2 mph N29.3 kmh N 18.0 mph29.0 kmh 26.82 in908.2 mb 0.00 in0.0 mm 0.00 in/hr0.0 mm/hr 0.00 in0.0 mm
12:32 PM 73.2°F22.9°C 50.6°F10.3°C 45% 10.4 mph NNE16.7 kmh NNE 18.0 mph29.0 kmh 26.82 in908.2 mb 0.00 in0.0 mm 0.00 in/hr0.0 mm/hr 0.00 in0.0 mm
12:34 PM 73.2°F22.9°C 50.6°F10.3°C 45% 11.7 mph NE18.8 kmh NE 17.0 mph27.4 kmh 26.82 in908.2 mb 0.00 in0.0 mm 0.00 in/hr0.0 mm/hr 0.00 in0.0 mm
12:36 PM 73.2°F22.9°C 51.2°F10.7°C 46% 6.5 mph NNW10.5 kmh NNW 10.0 mph16.1 kmh 26.82 in908.2 mb 0.00 in0.0 mm 0.00 in/hr0.0 mm/hr 0.00 in0.0 mm
12:38 PM 73.2°F22.9°C 50.6°F10.3°C 45% 14.3 mph N23.0 kmh N 14.0 mph22.5 kmh 26.82 in908.2 mb 0.00 in0.0 mm 0.00 in/hr0.0 mm/hr 0.00 in0.0 mm
12:40 PM 74.2°F23.4°C 50.9°F10.5°C 44% 9.1 mph NNE14.6 kmh NNE 15.0 mph24.1 kmh 26.82 in908.2 mb 0.00 in0.0 mm 0.00 in/hr0.0 mm/hr 0.00 in0.0 mm
12:42 PM 74.2°F23.4°C 50.3°F10.2°C 43% 10.4 mph NNE16.7 kmh NNE 16.0 mph25.7 kmh 26.82 in908.2 mb 0.00 in0.0 mm 0.00 in/hr0.0 mm/hr 0.00 in0.0 mm
12:44 PM 74.2°F23.4°C 50.3°F10.2°C 43% 13.0 mph NNW20.9 kmh NNW 17.0 mph27.4 kmh 26.82 in908.2 mb 0.00 in0.0 mm 0.00 in/hr0.0 mm/hr 0.00 in0.0 mm
12:46 PM 73.2°F22.9°C 49.4°F9.7°C 43% 9.1 mph NE14.6 kmh NE 17.0 mph27.4 kmh 26.82 in908.2 mb 0.00 in0.0 mm 0.00 in/hr0.0 mm/hr 0.00 in0.0 mm
12:48 PM 73.2°F22.9°C 50.6°F10.3°C 45% 16.9 mph NW27.2 kmh NW 20.0 mph32.2 kmh 26.82 in908.2 mb 0.00 in0.0 mm 0.00 in/hr0.0 mm/hr 0.00 in0.0 mm
12:50 PM 72.2°F22.3°C 50.3°F10.2°C 46% 13.0 mph NNE20.9 kmh NNE 19.0 mph30.6 kmh 26.82 in908.2 mb 0.00 in0.0 mm 0.00 in/hr0.0 mm/hr 0.00 in0.0 mm
12:52 PM 72.2°F22.3°C 48.5°F9.2°C 43% 20.8 mph N33.5 kmh N 16.0 mph25.7 kmh 26.82 in908.2 mb 0.00 in0.0 mm 0.00 in/hr0.0 mm/hr 0.00 in0.0 mm
12:54 PM 72.2°F22.3°C 49.7°F9.8°C 45% 19.5 mph N31.4 kmh N 15.0 mph24.1 kmh 26.82 in908.2 mb 0.00 in0.0 mm 0.00 in/hr0.0 mm/hr 0.00 in0.0 mm
12:56 PM 73.2°F22.9°C 50.6°F10.3°C 45% 6.5 mph NNE10.5 kmh NNE 13.0 mph20.9 kmh 26.82 in908.2 mb 0.00 in0.0 mm 0.00 in/hr0.0 mm/hr 0.00 in0.0 mm
12:58 PM 73.2°F22.9°C 49.4°F9.7°C 43% 26.0 mph N41.8 kmh N 21.0 mph33.8 kmh 26.82 in908.2 mb 0.00 in0.0 mm 0.00 in/hr0.0 mm/hr 0.00 in0.0 mm
01:00 PM 73.2°F22.9°C 50.0°F10.0°C 44% 11.7 mph NE18.8 kmh NE 14.0 mph22.5 kmh 26.82 in908.2 mb 0.00 in0.0 mm 0.00 in/hr0.0 mm/hr 0.00 in0.0 mm
01:02 PM 73.2°F22.9°C 50.0°F10.0°C 44% 5.2 mph E8.4 kmh E 12.0 mph19.3 kmh 26.82 in908.2 mb 0.00 in0.0 mm 0.00 in/hr0.0 mm/hr 0.00 in0.0 mm
01:04 PM 73.2°F22.9°C 49.4°F9.7°C 43% 11.7 mph N18.8 kmh N 15.0 mph24.1 kmh 26.82 in908.2 mb 0.00 in0.0 mm 0.00 in/hr0.0 mm/hr 0.00 in0.0 mm
01:06 PM 73.2°F22.9°C 49.4°F9.7°C 43% 10.4 mph NE16.7 kmh NE 15.0 mph24.1 kmh 26.82 in908.2 mb 0.00 in0.0 mm 0.00 in/hr0.0 mm/hr 0.00 in0.0 mm
01:08 PM 74.2°F23.4°C 50.3°F10.2°C 43% 15.6 mph N25.1 kmh N 16.0 mph25.7 kmh 26.82 in908.2 mb 0.00 in0.0 mm 0.00 in/hr0.0 mm/hr 0.00 in0.0 mm
01:10 PM 74.2°F23.4°C 50.9°F10.5°C 44% 13.0 mph NNW20.9 kmh NNW 17.0 mph27.4 kmh 26.82 in908.2 mb 0.00 in0.0 mm 0.00 in/hr0.0 mm/hr 0.00 in0.0 mm
01:12 PM 74.2°F23.4°C 50.3°F10.2°C 43% 15.6 mph N25.1 kmh N 18.0 mph29.0 kmh 26.82 in908.2 mb 0.00 in0.0 mm 0.00 in/hr0.0 mm/hr 0.00 in0.0 mm
01:14 PM 74.2°F23.4°C 51.5°F10.8°C 45% 6.5 mph N10.5 kmh N 13.0 mph20.9 kmh 26.82 in908.2 mb 0.00 in0.0 mm 0.00 in/hr0.0 mm/hr 0.00 in0.0 mm
01:16 PM 74.2°F23.4°C 51.5°F10.8°C 45% 10.4 mph N16.7 kmh N 10.0 mph16.1 kmh 26.82 in908.2 mb 0.00 in0.0 mm 0.00 in/hr0.0 mm/hr 0.00 in0.0 mm
01:18 PM 74.2°F23.4°C 50.3°F10.2°C 43% 16.9 mph NW27.2 kmh NW 24.0 mph38.6 kmh 26.82 in908.2 mb 0.00 in0.0 mm 0.00 in/hr0.0 mm/hr 0.00 in0.0 mm
01:20 PM 74.2°F23.4°C 50.3°F10.2°C 43% 7.8 mph NE12.6 kmh NE 15.0 mph24.1 kmh 26.82 in908.2 mb 0.00 in0.0 mm 0.00 in/hr0.0 mm/hr 0.00 in0.0 mm
01:22 PM 73.2°F22.9°C 50.0°F10.0°C 44% 3.9 mph NNE6.3 kmh NNE 14.0 mph22.5 kmh 26.82 in908.2 mb 0.00 in0.0 mm 0.00 in/hr0.0 mm/hr 0.00 in0.0 mm
01:24 PM 74.2°F23.4°C 51.5°F10.8°C 45% 11.7 mph NNE18.8 kmh NNE 15.0 mph24.1 kmh 26.82 in908.2 mb 0.00 in0.0 mm 0.00 in/hr0.0 mm/hr 0.00 in0.0 mm
01:26 PM 74.2°F23.4°C 50.3°F10.2°C 43% 13.0 mph N20.9 kmh N 16.0 mph25.7 kmh 26.82 in908.2 mb 0.00 in0.0 mm 0.00 in/hr0.0 mm/hr 0.00 in0.0 mm
01:28 PM 73.2°F22.9°C 49.4°F9.7°C 43% 10.4 mph NNW16.7 kmh NNW 14.0 mph22.5 kmh 26.82 in908.2 mb 0.00 in0.0 mm 0.00 in/hr0.0 mm/hr 0.00 in0.0 mm
01:30 PM 73.2°F22.9°C 50.0°F10.0°C 44% 10.4 mph NW16.7 kmh NW 15.0 mph24.1 kmh 26.81 in907.9 mb 0.00 in0.0 mm 0.00 in/hr0.0 mm/hr 0.00 in0.0 mm
01:32 PM 72.2°F22.3°C 49.7°F9.8°C 45% 13.0 mph N20.9 kmh N 15.0 mph24.1 kmh 26.81 in907.9 mb 0.00 in0.0 mm 0.00 in/hr0.0 mm/hr 0.00 in0.0 mm
01:34 PM 72.2°F22.3°C 49.7°F9.8°C 45% 10.4 mph N16.7 kmh N 15.0 mph24.1 kmh 26.81 in907.9 mb 0.00 in0.0 mm 0.00 in/hr0.0 mm/hr 0.00 in0.0 mm
01:36 PM 72.2°F22.3°C 49.7°F9.8°C 45% 14.3 mph N23.0 kmh N 17.0 mph27.4 kmh 26.81 in907.9 mb 0.00 in0.0 mm 0.00 in/hr0.0 mm/hr 0.00 in0.0 mm
01:38 PM 72.2°F22.3°C 50.3°F10.2°C 46% 7.8 mph N12.6 kmh N 17.0 mph27.4 kmh 26.81 in907.9 mb 0.00 in0.0 mm 0.00 in/hr0.0 mm/hr 0.00 in0.0 mm
01:40 PM 72.2°F22.3°C 50.3°F10.2°C 46% 13.0 mph N20.9 kmh N 14.0 mph22.5 kmh 26.82 in908.2 mb 0.00 in0.0 mm 0.00 in/hr0.0 mm/hr 0.00 in0.0 mm
01:42 PM 72.2°F22.3°C 49.7°F9.8°C 45% 11.7 mph NNW18.8 kmh NNW 16.0 mph25.7 kmh 26.82 in908.2 mb 0.00 in0.0 mm 0.00 in/hr0.0 mm/hr 0.00 in0.0 mm
01:44 PM 71.1°F21.7°C 49.3°F9.6°C 46% 10.4 mph NE16.7 kmh NE 15.0 mph24.1 kmh 26.82 in908.2 mb 0.00 in0.0 mm 0.00 in/hr0.0 mm/hr 0.00 in0.0 mm
01:46 PM 71.1°F21.7°C 48.7°F9.3°C 45% 15.6 mph N25.1 kmh N 17.0 mph27.4 kmh 26.82 in908.2 mb 0.00 in0.0 mm 0.00 in/hr0.0 mm/hr 0.00 in0.0 mm
01:48 PM 71.1°F21.7°C 49.3°F9.6°C 46% 9.1 mph NE14.6 kmh NE 19.0 mph30.6 kmh 26.82 in908.2 mb 0.00 in0.0 mm 0.00 in/hr0.0 mm/hr 0.00 in0.0 mm
01:50 PM 71.1°F21.7°C 49.9°F9.9°C 47% 10.4 mph NNE16.7 kmh NNE 12.0 mph19.3 kmh 26.83 in908.6 mb 0.00 in0.0 mm 0.00 in/hr0.0 mm/hr 0.00 in0.0 mm
01:52 PM 71.1°F21.7°C 50.5°F10.3°C 48% 6.5 mph N10.5 kmh N 18.0 mph29.0 kmh 26.83 in908.6 mb 0.00 in0.0 mm 0.00 in/hr0.0 mm/hr 0.00 in0.0 mm
01:54 PM 71.1°F21.7°C 50.5°F10.3°C 48% 6.5 mph N10.5 kmh N 12.0 mph19.3 kmh 26.83 in908.6 mb 0.00 in0.0 mm 0.00 in/hr0.0 mm/hr 0.00 in0.0 mm
01:56 PM 71.1°F21.7°C 50.5°F10.3°C 48% 11.7 mph NE18.8 kmh NE 21.0 mph33.8 kmh 26.83 in908.6 mb 0.00 in0.0 mm 0.00 in/hr0.0 mm/hr 0.00 in0.0 mm
01:58 PM 71.1°F21.7°C 49.9°F9.9°C 47% 7.8 mph NNE12.6 kmh NNE 19.0 mph30.6 kmh 26.83 in908.6 mb 0.00 in0.0 mm 0.00 in/hr0.0 mm/hr 0.00 in0.0 mm
02:00 PM 71.1°F21.7°C 49.3°F9.6°C 46% 9.1 mph NNE14.6 kmh NNE 13.0 mph20.9 kmh 26.82 in908.2 mb 0.00 in0.0 mm 0.00 in/hr0.0 mm/hr 0.00 in0.0 mm
02:02 PM 71.1°F21.7°C 49.3°F9.6°C 46% 16.9 mph NNW27.2 kmh NNW 17.0 mph27.4 kmh 26.82 in908.2 mb 0.00 in0.0 mm 0.00 in/hr0.0 mm/hr 0.00 in0.0 mm
02:04 PM 71.1°F21.7°C 49.3°F9.6°C 46% 13.0 mph NE20.9 kmh NE 13.0 mph20.9 kmh 26.82 in908.2 mb 0.00 in0.0 mm 0.00 in/hr0.0 mm/hr 0.00 in0.0 mm
02:06 PM 71.1°F21.7°C 49.3°F9.6°C 46% 11.7 mph N18.8 kmh N 16.0 mph25.7 kmh 26.82 in908.2 mb 0.00 in0.0 mm 0.00 in/hr0.0 mm/hr 0.00 in0.0 mm
02:08 PM 71.1°F21.7°C 48.7°F9.3°C 45% 13.0 mph NE20.9 kmh NE 19.0 mph30.6 kmh 26.82 in908.2 mb 0.00 in0.0 mm 0.00 in/hr0.0 mm/hr 0.00 in0.0 mm
02:10 PM 71.1°F21.7°C 48.7°F9.3°C 45% 16.9 mph NW27.2 kmh NW 17.0 mph27.4 kmh 26.83 in908.6 mb 0.00 in0.0 mm 0.00 in/hr0.0 mm/hr 0.00 in0.0 mm
02:12 PM 72.2°F22.3°C 49.7°F9.8°C 45% 9.1 mph NNE14.6 kmh NNE 17.0 mph27.4 kmh 26.83 in908.6 mb 0.00 in0.0 mm 0.00 in/hr0.0 mm/hr 0.00 in0.0 mm
02:14 PM 72.2°F22.3°C 49.7°F9.8°C 45% 13.0 mph NNW20.9 kmh NNW 16.0 mph25.7 kmh 26.83 in908.6 mb 0.00 in0.0 mm 0.00 in/hr0.0 mm/hr 0.00 in0.0 mm
02:16 PM 72.2°F22.3°C 49.7°F9.8°C 45% 9.1 mph N14.6 kmh N 18.0 mph29.0 kmh 26.83 in908.6 mb 0.00 in0.0 mm 0.00 in/hr0.0 mm/hr 0.00 in0.0 mm
02:18 PM 72.2°F22.3°C 49.7°F9.8°C 45% 9.1 mph N14.6 kmh N 13.0 mph20.9 kmh 26.83 in908.6 mb 0.00 in0.0 mm 0.00 in/hr0.0 mm/hr 0.00 in0.0 mm
02:20 PM 73.2°F22.9°C 50.6°F10.3°C 45% 16.9 mph N27.2 kmh N 13.0 mph20.9 kmh 26.83 in908.6 mb 0.00 in0.0 mm 0.00 in/hr0.0 mm/hr 0.00 in0.0 mm
02:22 PM 73.2°F22.9°C 50.0°F10.0°C 44% 13.0 mph W20.9 kmh W 15.0 mph24.1 kmh 26.83 in908.6 mb 0.00 in0.0 mm 0.00 in/hr0.0 mm/hr 0.00 in0.0 mm
02:24 PM 73.2°F22.9°C 49.4°F9.7°C 43% 13.0 mph N20.9 kmh N 19.0 mph30.6 kmh 26.83 in908.6 mb 0.00 in0.0 mm 0.00 in/hr0.0 mm/hr 0.00 in0.0 mm
02:26 PM 73.2°F22.9°C 50.0°F10.0°C 44% 5.2 mph NNE8.4 kmh NNE 15.0 mph24.1 kmh 26.83 in908.6 mb 0.00 in0.0 mm 0.00 in/hr0.0 mm/hr 0.00 in0.0 mm
02:28 PM 73.2°F22.9°C 50.6°F10.3°C 45% 13.0 mph ENE20.9 kmh ENE 12.0 mph19.3 kmh 26.83 in908.6 mb 0.00 in0.0 mm 0.00 in/hr0.0 mm/hr 0.00 in0.0 mm
02:30 PM 72.2°F22.3°C 49.1°F9.5°C 44% 7.8 mph NE12.6 kmh NE 11.0 mph17.7 kmh 26.82 in908.2 mb 0.00 in0.0 mm 0.00 in/hr0.0 mm/hr 0.00 in0.0 mm
02:32 PM 72.2°F22.3°C 48.5°F9.2°C 43% 11.7 mph NE18.8 kmh NE 10.0 mph16.1 kmh 26.82 in908.2 mb 0.00 in0.0 mm 0.00 in/hr0.0 mm/hr 0.00 in0.0 mm
02:34 PM 73.2°F22.9°C 49.4°F9.7°C 43% 10.4 mph N16.7 kmh N 16.0 mph25.7 kmh 26.82 in908.2 mb 0.00 in0.0 mm 0.00 in/hr0.0 mm/hr 0.00 in0.0 mm
02:36 PM 73.2°F22.9°C 49.4°F9.7°C 43% 13.0 mph N20.9 kmh N 14.0 mph22.5 kmh 26.82 in908.2 mb 0.00 in0.0 mm 0.00 in/hr0.0 mm/hr 0.00 in0.0 mm
02:38 PM 73.2°F22.9°C 48.8°F9.3°C 42% 7.8 mph N12.6 kmh N 15.0 mph24.1 kmh 26.82 in908.2 mb 0.00 in0.0 mm 0.00 in/hr0.0 mm/hr 0.00 in0.0 mm
02:40 PM 73.2°F22.9°C 49.4°F9.7°C 43% 9.1 mph ENE14.6 kmh ENE 11.0 mph17.7 kmh 26.82 in908.2 mb 0.00 in0.0 mm 0.00 in/hr0.0 mm/hr 0.00 in0.0 mm
02:42 PM 74.2°F23.4°C 49.0°F9.4°C 41% 6.5 mph NNE10.5 kmh NNE 13.0 mph20.9 kmh 26.82 in908.2 mb 0.00 in0.0 mm 0.00 in/hr0.0 mm/hr 0.00 in0.0 mm
02:44 PM 74.2°F23.4°C 49.0°F9.4°C 41% 11.7 mph NE18.8 kmh NE 19.0 mph30.6 kmh 26.82 in908.2 mb 0.00 in0.0 mm 0.00 in/hr0.0 mm/hr 0.00 in0.0 mm
02:46 PM 74.2°F23.4°C 49.7°F9.8°C 42% 11.7 mph N18.8 kmh N 17.0 mph27.4 kmh 26.82 in908.2 mb 0.00 in0.0 mm 0.00 in/hr0.0 mm/hr 0.00 in0.0 mm
02:48 PM 74.2°F23.4°C 49.7°F9.8°C 42% 11.7 mph NE18.8 kmh NE 13.0 mph20.9 kmh 26.82 in908.2 mb 0.00 in0.0 mm 0.00 in/hr0.0 mm/hr 0.00 in0.0 mm
02:50 PM 74.2°F23.4°C 47.7°F8.7°C 39% 9.1 mph NE14.6 kmh NE 15.0 mph24.1 kmh 26.81 in907.9 mb 0.00 in0.0 mm 0.00 in/hr0.0 mm/hr 0.00 in0.0 mm
02:52 PM 74.2°F23.4°C 47.7°F8.7°C 39% 9.1 mph N14.6 kmh N 16.0 mph25.7 kmh 26.81 in907.9 mb 0.00 in0.0 mm 0.00 in/hr0.0 mm/hr 0.00 in0.0 mm
02:54 PM 74.2°F23.4°C 48.4°F9.1°C 40% 9.1 mph NNW14.6 kmh NNW 16.0 mph25.7 kmh 26.81 in907.9 mb 0.00 in0.0 mm 0.00 in/hr0.0 mm/hr 0.00 in0.0 mm
02:56 PM 74.2°F23.4°C 49.0°F9.4°C 41% 16.9 mph NW27.2 kmh NW 13.0 mph20.9 kmh 26.81 in907.9 mb 0.00 in0.0 mm 0.00 in/hr0.0 mm/hr 0.00 in0.0 mm
02:58 PM 73.2°F22.9°C 48.8°F9.3°C 42% 11.7 mph NE18.8 kmh NE 18.0 mph29.0 kmh 26.81 in907.9 mb 0.00 in0.0 mm 0.00 in/hr0.0 mm/hr 0.00 in0.0 mm
03:00 PM 73.2°F22.9°C 48.1°F8.9°C 41% 13.0 mph N20.9 kmh N 11.0 mph17.7 kmh 26.81 in907.9 mb 0.00 in0.0 mm 0.00 in/hr0.0 mm/hr 0.00 in0.0 mm
03:02 PM 73.2°F22.9°C 48.1°F8.9°C 41% 15.6 mph N25.1 kmh N 12.0 mph19.3 kmh 26.81 in907.9 mb 0.00 in0.0 mm 0.00 in/hr0.0 mm/hr 0.00 in0.0 mm
03:04 PM 73.2°F22.9°C 47.5°F8.6°C 40% 13.0 mph N20.9 kmh N 16.0 mph25.7 kmh 26.81 in907.9 mb 0.00 in0.0 mm 0.00 in/hr0.0 mm/hr 0.00 in0.0 mm
03:06 PM 72.2°F22.3°C 45.9°F7.7°C 39% 13.0 mph NNW20.9 kmh NNW 15.0 mph24.1 kmh 26.81 in907.9 mb 0.00 in0.0 mm 0.00 in/hr0.0 mm/hr 0.00 in0.0 mm
03:08 PM 72.2°F22.3°C 46.5°F8.1°C 40% 9.1 mph N14.6 kmh N 13.0 mph20.9 kmh 26.81 in907.9 mb 0.00 in0.0 mm 0.00 in/hr0.0 mm/hr 0.00 in0.0 mm
03:10 PM 72.2°F22.3°C 47.2°F8.4°C 41% 10.4 mph N16.7 kmh N 15.0 mph24.1 kmh 26.82 in908.2 mb 0.00 in0.0 mm 0.00 in/hr0.0 mm/hr 0.00 in0.0 mm
03:12 PM 72.2°F22.3°C 45.9°F7.7°C 39% 20.8 mph NNE33.5 kmh NNE 16.0 mph25.7 kmh 26.82 in908.2 mb 0.00 in0.0 mm 0.00 in/hr0.0 mm/hr 0.00 in0.0 mm
03:14 PM 72.2°F22.3°C 46.5°F8.1°C 40% 6.5 mph NNE10.5 kmh NNE 16.0 mph25.7 kmh 26.82 in908.2 mb 0.00 in0.0 mm 0.00 in/hr0.0 mm/hr 0.00 in0.0 mm
03:16 PM 72.2°F22.3°C 47.2°F8.4°C 41% 5.2 mph NNW8.4 kmh NNW 13.0 mph20.9 kmh 26.82 in908.2 mb 0.00 in0.0 mm 0.00 in/hr0.0 mm/hr 0.00 in0.0 mm
03:18 PM 71.1°F21.7°C 45.6°F7.6°C 40% 9.1 mph N14.6 kmh N 13.0 mph20.9 kmh 26.82 in908.2 mb 0.00 in0.0 mm 0.00 in/hr0.0 mm/hr 0.00 in0.0 mm
03:20 PM 71.1°F21.7°C 46.3°F7.9°C 41% 15.6 mph WNW25.1 kmh WNW 19.0 mph30.6 kmh 26.82 in908.2 mb 0.00 in0.0 mm 0.00 in/hr0.0 mm/hr 0.00 in0.0 mm
03:22 PM 71.1°F21.7°C 46.3°F7.9°C 41% 16.9 mph N27.2 kmh N 16.0 mph25.7 kmh 26.82 in908.2 mb 0.00 in0.0 mm 0.00 in/hr0.0 mm/hr 0.00 in0.0 mm
03:24 PM 71.1°F21.7°C 46.3°F7.9°C 41% 16.9 mph N27.2 kmh N 16.0 mph25.7 kmh 26.82 in908.2 mb 0.00 in0.0 mm 0.00 in/hr0.0 mm/hr 0.00 in0.0 mm
03:26 PM 71.1°F21.7°C 46.9°F8.3°C 42% 9.1 mph ENE14.6 kmh ENE 15.0 mph24.1 kmh 26.82 in908.2 mb 0.00 in0.0 mm 0.00 in/hr0.0 mm/hr 0.00 in0.0 mm
03:28 PM 71.1°F21.7°C 46.9°F8.3°C 42% 10.4 mph NW16.7 kmh NW 16.0 mph25.7 kmh 26.82 in908.2 mb 0.00 in0.0 mm 0.00 in/hr0.0 mm/hr 0.00 in0.0 mm
03:30 PM 70.1°F21.2°C 45.3°F7.4°C 41% 7.8 mph NNW12.6 kmh NNW 19.0 mph30.6 kmh 26.83 in908.6 mb 0.00 in0.0 mm 0.00 in/hr0.0 mm/hr 0.00 in0.0 mm
03:32 PM 70.1°F21.2°C 45.3°F7.4°C 41% 9.1 mph N14.6 kmh N 15.0 mph24.1 kmh 26.83 in908.6 mb 0.00 in0.0 mm 0.00 in/hr0.0 mm/hr 0.00 in0.0 mm
03:34 PM 70.1°F21.2°C 45.3°F7.4°C 41% 24.7 mph NW39.8 kmh NW 21.0 mph33.8 kmh 26.83 in908.6 mb 0.00 in0.0 mm 0.00 in/hr0.0 mm/hr 0.00 in0.0 mm
03:36 PM 70.1°F21.2°C 45.3°F7.4°C 41% 16.9 mph NW27.2 kmh NW 18.0 mph29.0 kmh 26.83 in908.6 mb 0.00 in0.0 mm 0.00 in/hr0.0 mm/hr 0.00 in0.0 mm
03:38 PM 70.1°F21.2°C 46.0°F7.8°C 42% 7.8 mph NW12.6 kmh NW 12.0 mph19.3 kmh 26.83 in908.6 mb 0.00 in0.0 mm 0.00 in/hr0.0 mm/hr 0.00 in0.0 mm
03:40 PM 70.1°F21.2°C 46.0°F7.8°C 42% 10.4 mph NW16.7 kmh NW 10.0 mph16.1 kmh 26.84 in908.9 mb 0.00 in0.0 mm 0.00 in/hr0.0 mm/hr 0.00 in0.0 mm
03:42 PM 70.1°F21.2°C 45.3°F7.4°C 41% 13.0 mph W20.9 kmh W 11.0 mph17.7 kmh 26.84 in908.9 mb 0.00 in0.0 mm 0.00 in/hr0.0 mm/hr 0.00 in0.0 mm
03:44 PM 70.1°F21.2°C 45.3°F7.4°C 41% 19.5 mph NW31.4 kmh NW 18.0 mph29.0 kmh 26.84 in908.9 mb 0.00 in0.0 mm 0.00 in/hr0.0 mm/hr 0.00 in0.0 mm
03:46 PM 69.1°F20.6°C 45.0°F7.2°C 42% 13.0 mph WNW20.9 kmh WNW 14.0 mph22.5 kmh 26.84 in908.9 mb 0.00 in0.0 mm 0.00 in/hr0.0 mm/hr 0.00 in0.0 mm
03:48 PM 69.1°F20.6°C 45.0°F7.2°C 42% 11.7 mph NW18.8 kmh NW 17.0 mph27.4 kmh 26.84 in908.9 mb 0.00 in0.0 mm 0.00 in/hr0.0 mm/hr 0.00 in0.0 mm
03:50 PM 69.1°F20.6°C 45.0°F7.2°C 42% 13.0 mph NW20.9 kmh NW 18.0 mph29.0 kmh 26.84 in908.9 mb 0.00 in0.0 mm 0.00 in/hr0.0 mm/hr 0.00 in0.0 mm
03:52 PM 69.1°F20.6°C 43.8°F6.6°C 40% 10.4 mph NNE16.7 kmh NNE 14.0 mph22.5 kmh 26.84 in908.9 mb 0.00 in0.0 mm 0.00 in/hr0.0 mm/hr 0.00 in0.0 mm
03:54 PM 69.1°F20.6°C 44.4°F6.9°C 41% 14.3 mph N23.0 kmh N 11.0 mph17.7 kmh 26.84 in908.9 mb 0.00 in0.0 mm 0.00 in/hr0.0 mm/hr 0.00 in0.0 mm
03:56 PM 69.1°F20.6°C 43.8°F6.6°C 40% 7.8 mph N12.6 kmh N 16.0 mph25.7 kmh 26.84 in908.9 mb 0.00 in0.0 mm 0.00 in/hr0.0 mm/hr 0.00 in0.0 mm
03:58 PM 69.1°F20.6°C 44.4°F6.9°C 41% 5.2 mph NNE8.4 kmh NNE 14.0 mph22.5 kmh 26.84 in908.9 mb 0.00 in0.0 mm 0.00 in/hr0.0 mm/hr 0.00 in0.0 mm
04:00 PM 69.1°F20.6°C 44.4°F6.9°C 41% 13.0 mph N20.9 kmh N 17.0 mph27.4 kmh 26.85 in909.2 mb 0.00 in0.0 mm 0.00 in/hr0.0 mm/hr 0.00 in0.0 mm
04:02 PM 69.1°F20.6°C 44.4°F6.9°C 41% 13.0 mph W20.9 kmh W 14.0 mph22.5 kmh 26.85 in909.2 mb 0.00 in0.0 mm 0.00 in/hr0.0 mm/hr 0.00 in0.0 mm
04:04 PM 69.1°F20.6°C 44.4°F6.9°C 41% 13.0 mph NNW20.9 kmh NNW 11.0 mph17.7 kmh 26.85 in909.2 mb 0.00 in0.0 mm 0.00 in/hr0.0 mm/hr 0.00 in0.0 mm
04:06 PM 69.1°F20.6°C 45.0°F7.2°C 42% 10.4 mph N16.7 kmh N 13.0 mph20.9 kmh 26.85 in909.2 mb 0.00 in0.0 mm 0.00 in/hr0.0 mm/hr 0.00 in0.0 mm
04:08 PM 69.1°F20.6°C 44.4°F6.9°C 41% 11.7 mph N18.8 kmh N 15.0 mph24.1 kmh 26.85 in909.2 mb 0.00 in0.0 mm 0.00 in/hr0.0 mm/hr 0.00 in0.0 mm
04:10 PM 69.1°F20.6°C 44.4°F6.9°C 41% 20.8 mph NNE33.5 kmh NNE 16.0 mph25.7 kmh 26.85 in909.2 mb 0.00 in0.0 mm 0.00 in/hr0.0 mm/hr 0.00 in0.0 mm
04:12 PM 69.1°F20.6°C 44.4°F6.9°C 41% 7.8 mph NW12.6 kmh NW 15.0 mph24.1 kmh 26.85 in909.2 mb 0.00 in0.0 mm 0.00 in/hr0.0 mm/hr 0.00 in0.0 mm
04:14 PM 69.1°F20.6°C 44.4°F6.9°C 41% 13.0 mph NNE20.9 kmh NNE 17.0 mph27.4 kmh 26.85 in909.2 mb 0.00 in0.0 mm 0.00 in/hr0.0 mm/hr 0.00 in0.0 mm
04:16 PM 69.1°F20.6°C 44.4°F6.9°C 41% 9.1 mph NNE14.6 kmh NNE 14.0 mph22.5 kmh 26.85 in909.2 mb 0.00 in0.0 mm 0.00 in/hr0.0 mm/hr 0.00 in0.0 mm
04:18 PM 69.1°F20.6°C 44.4°F6.9°C 41% 5.2 mph N8.4 kmh N 10.0 mph16.1 kmh 26.85 in909.2 mb 0.00 in0.0 mm 0.00 in/hr0.0 mm/hr 0.00 in0.0 mm
04:20 PM 69.1°F20.6°C 44.4°F6.9°C 41% 18.2 mph N29.3 kmh N 14.0 mph22.5 kmh 26.86 in909.6 mb 0.00 in0.0 mm 0.00 in/hr0.0 mm/hr 0.00 in0.0 mm
04:22 PM 69.1°F20.6°C 44.4°F6.9°C 41% 11.7 mph NNE18.8 kmh NNE 12.0 mph19.3 kmh 26.86 in909.6 mb 0.00 in0.0 mm 0.00 in/hr0.0 mm/hr 0.00 in0.0 mm
04:24 PM 69.1°F20.6°C 44.4°F6.9°C 41% 7.8 mph NW12.6 kmh NW 10.0 mph16.1 kmh 26.86 in909.6 mb 0.00 in0.0 mm 0.00 in/hr0.0 mm/hr 0.00 in0.0 mm
04:26 PM 69.1°F20.6°C 44.4°F6.9°C 41% 10.4 mph NNW16.7 kmh NNW 10.0 mph16.1 kmh 26.86 in909.6 mb 0.00 in0.0 mm 0.00 in/hr0.0 mm/hr 0.00 in0.0 mm
04:28 PM 69.1°F20.6°C 44.4°F6.9°C 41% 10.4 mph N16.7 kmh N 10.0 mph16.1 kmh 26.86 in909.6 mb 0.00 in0.0 mm 0.00 in/hr0.0 mm/hr 0.00 in0.0 mm
04:30 PM 69.1°F20.6°C 45.0°F7.2°C 42% 7.8 mph WNW12.6 kmh WNW 10.0 mph16.1 kmh 26.86 in909.6 mb 0.00 in0.0 mm 0.00 in/hr0.0 mm/hr 0.00 in0.0 mm
04:32 PM 69.1°F20.6°C 45.0°F7.2°C 42% 9.1 mph NNW14.6 kmh NNW 13.0 mph20.9 kmh 26.86 in909.6 mb 0.00 in0.0 mm 0.00 in/hr0.0 mm/hr 0.00 in0.0 mm
04:34 PM 69.1°F20.6°C 45.7°F7.6°C 43% 18.2 mph NW29.3 kmh NW 14.0 mph22.5 kmh 26.86 in909.6 mb 0.00 in0.0 mm 0.00 in/hr0.0 mm/hr 0.00 in0.0 mm
04:36 PM 69.1°F20.6°C 46.3°F7.9°C 44% 10.4 mph NW16.7 kmh NW 14.0 mph22.5 kmh 26.86 in909.6 mb 0.00 in0.0 mm 0.00 in/hr0.0 mm/hr 0.00 in0.0 mm
04:38 PM 69.1°F20.6°C 46.3°F7.9°C 44% 14.3 mph NW23.0 kmh NW 11.0 mph17.7 kmh 26.86 in909.6 mb 0.00 in0.0 mm 0.00 in/hr0.0 mm/hr 0.00 in0.0 mm
04:40 PM 69.1°F20.6°C 45.7°F7.6°C 43% 6.5 mph NE10.5 kmh NE 12.0 mph19.3 kmh 26.87 in909.9 mb 0.00 in0.0 mm 0.00 in/hr0.0 mm/hr 0.00 in0.0 mm
04:42 PM 69.1°F20.6°C 46.3°F7.9°C 44% 9.1 mph N14.6 kmh N 11.0 mph17.7 kmh 26.87 in909.9 mb 0.00 in0.0 mm 0.00 in/hr0.0 mm/hr 0.00 in0.0 mm
04:44 PM 68.0°F20.0°C 45.9°F7.7°C 45% 13.0 mph NW20.9 kmh NW 18.0 mph29.0 kmh 26.87 in909.9 mb 0.00 in0.0 mm 0.00 in/hr0.0 mm/hr 0.00 in0.0 mm
04:46 PM 68.0°F20.0°C 45.9°F7.7°C 45% 9.1 mph NNW14.6 kmh NNW 13.0 mph20.9 kmh 26.87 in909.9 mb 0.00 in0.0 mm 0.00 in/hr0.0 mm/hr 0.00 in0.0 mm
04:48 PM 68.0°F20.0°C 44.7°F7.1°C 43% 10.4 mph N16.7 kmh N 10.0 mph16.1 kmh 26.87 in909.9 mb 0.00 in0.0 mm 0.00 in/hr0.0 mm/hr 0.00 in0.0 mm
04:50 PM 68.0°F20.0°C 45.3°F7.4°C 44% 6.5 mph NW10.5 kmh NW 15.0 mph24.1 kmh 26.87 in909.9 mb 0.00 in0.0 mm 0.00 in/hr0.0 mm/hr 0.00 in0.0 mm
04:52 PM 68.0°F20.0°C 45.9°F7.7°C 45% 5.2 mph N8.4 kmh N 12.0 mph19.3 kmh 26.87 in909.9 mb 0.00 in0.0 mm 0.00 in/hr0.0 mm/hr 0.00 in0.0 mm
04:54 PM 68.0°F20.0°C 44.7°F7.1°C 43% 9.1 mph NW14.6 kmh NW 11.0 mph17.7 kmh 26.87 in909.9 mb 0.00 in0.0 mm 0.00 in/hr0.0 mm/hr 0.00 in0.0 mm
04:56 PM 68.0°F20.0°C 44.7°F7.1°C 43% 13.0 mph NNW20.9 kmh NNW 14.0 mph22.5 kmh 26.87 in909.9 mb 0.00 in0.0 mm 0.00 in/hr0.0 mm/hr 0.00 in0.0 mm
04:58 PM 68.0°F20.0°C 44.7°F7.1°C 43% 7.8 mph NW12.6 kmh NW 15.0 mph24.1 kmh 26.87 in909.9 mb 0.00 in0.0 mm 0.00 in/hr0.0 mm/hr 0.00 in0.0 mm
05:00 PM 68.0°F20.0°C 45.3°F7.4°C 44% 7.8 mph NNE12.6 kmh NNE 11.0 mph17.7 kmh 26.87 in909.9 mb 0.00 in0.0 mm 0.00 in/hr0.0 mm/hr 0.00 in0.0 mm
05:02 PM 68.0°F20.0°C 44.7°F7.1°C 43% 18.2 mph NW29.3 kmh NW 16.0 mph25.7 kmh 26.87 in909.9 mb 0.00 in0.0 mm 0.00 in/hr0.0 mm/hr 0.00 in0.0 mm
05:04 PM 68.0°F20.0°C 45.3°F7.4°C 44% 13.0 mph NW20.9 kmh NW 17.0 mph27.4 kmh 26.87 in909.9 mb 0.00 in0.0 mm 0.00 in/hr0.0 mm/hr 0.00 in0.0 mm
05:06 PM 68.0°F20.0°C 45.3°F7.4°C 44% 7.8 mph NNW12.6 kmh NNW 10.0 mph16.1 kmh 26.87 in909.9 mb 0.00 in0.0 mm 0.00 in/hr0.0 mm/hr 0.00 in0.0 mm
05:08 PM 68.0°F20.0°C 44.7°F7.1°C 43% 6.5 mph NW10.5 kmh NW 10.0 mph16.1 kmh 26.87 in909.9 mb 0.00 in0.0 mm 0.00 in/hr0.0 mm/hr 0.00 in0.0 mm
05:10 PM 68.0°F20.0°C 44.7°F7.1°C 43% 7.8 mph NNE12.6 kmh NNE 9.0 mph14.5 kmh 26.88 in910.3 mb 0.00 in0.0 mm 0.00 in/hr0.0 mm/hr 0.00 in0.0 mm
05:12 PM 68.0°F20.0°C 44.7°F7.1°C 43% 7.8 mph N12.6 kmh N 10.0 mph16.1 kmh 26.88 in910.3 mb 0.00 in0.0 mm 0.00 in/hr0.0 mm/hr 0.00 in0.0 mm
05:14 PM 68.0°F20.0°C 44.7°F7.1°C 43% 3.9 mph NW6.3 kmh NW 8.0 mph12.9 kmh 26.88 in910.3 mb 0.00 in0.0 mm 0.00 in/hr0.0 mm/hr 0.00 in0.0 mm
05:16 PM 68.0°F20.0°C 44.7°F7.1°C 43% 6.5 mph N10.5 kmh N 9.0 mph14.5 kmh 26.88 in910.3 mb 0.00 in0.0 mm 0.00 in/hr0.0 mm/hr 0.00 in0.0 mm
05:18 PM 68.0°F20.0°C 44.7°F7.1°C 43% 5.2 mph N8.4 kmh N 12.0 mph19.3 kmh 26.88 in910.3 mb 0.00 in0.0 mm 0.00 in/hr0.0 mm/hr 0.00 in0.0 mm
05:20 PM 68.0°F20.0°C 45.3°F7.4°C 44% 5.2 mph N8.4 kmh N 10.0 mph16.1 kmh 26.88 in910.3 mb 0.00 in0.0 mm 0.00 in/hr0.0 mm/hr 0.00 in0.0 mm
05:22 PM 68.0°F20.0°C 45.3°F7.4°C 44% 6.5 mph N10.5 kmh N 7.0 mph11.3 kmh 26.88 in910.3 mb 0.00 in0.0 mm 0.00 in/hr0.0 mm/hr 0.00 in0.0 mm
05:24 PM 68.0°F20.0°C 45.3°F7.4°C 44% 5.2 mph NNW8.4 kmh NNW 7.0 mph11.3 kmh 26.88 in910.3 mb 0.00 in0.0 mm 0.00 in/hr0.0 mm/hr 0.00 in0.0 mm
05:26 PM 68.0°F20.0°C 45.3°F7.4°C 44% 5.2 mph NW8.4 kmh NW 7.0 mph11.3 kmh 26.88 in910.3 mb 0.00 in0.0 mm 0.00 in/hr0.0 mm/hr 0.00 in0.0 mm
05:28 PM 68.0°F20.0°C 45.3°F7.4°C 44% 10.4 mph N16.7 kmh N 9.0 mph14.5 kmh 26.88 in910.3 mb 0.00 in0.0 mm 0.00 in/hr0.0 mm/hr 0.00 in0.0 mm
05:30 PM 68.0°F20.0°C 45.3°F7.4°C 44% 3.9 mph N6.3 kmh N 8.0 mph12.9 kmh 26.88 in910.3 mb 0.00 in0.0 mm 0.00 in/hr0.0 mm/hr 0.00 in0.0 mm
05:32 PM 68.0°F20.0°C 45.9°F7.7°C 45% 5.2 mph N8.4 kmh N 6.0 mph9.7 kmh 26.88 in910.3 mb 0.00 in0.0 mm 0.00 in/hr0.0 mm/hr 0.00 in0.0 mm
05:34 PM 68.0°F20.0°C 45.9°F7.7°C 45% 5.2 mph NNE8.4 kmh NNE 5.0 mph8.0 kmh 26.88 in910.3 mb 0.00 in0.0 mm 0.00 in/hr0.0 mm/hr 0.00 in0.0 mm
05:36 PM 68.0°F20.0°C 45.9°F7.7°C 45% 5.2 mph ENE8.4 kmh ENE 8.0 mph12.9 kmh 26.88 in910.3 mb 0.00 in0.0 mm 0.00 in/hr0.0 mm/hr 0.00 in0.0 mm
05:38 PM 68.0°F20.0°C 45.9°F7.7°C 45% 3.9 mph N6.3 kmh N 8.0 mph12.9 kmh 26.88 in910.3 mb 0.00 in0.0 mm 0.00 in/hr0.0 mm/hr 0.00 in0.0 mm
05:40 PM 68.0°F20.0°C 45.9°F7.7°C 45% 5.2 mph NE8.4 kmh NE 6.0 mph9.7 kmh 26.88 in910.3 mb 0.00 in0.0 mm 0.00 in/hr0.0 mm/hr 0.00 in0.0 mm
05:42 PM 68.0°F20.0°C 45.9°F7.7°C 45% 5.2 mph NNE8.4 kmh NNE 7.0 mph11.3 kmh 26.88 in910.3 mb 0.00 in0.0 mm 0.00 in/hr0.0 mm/hr 0.00 in0.0 mm
05:44 PM 68.0°F20.0°C 45.9°F7.7°C 45% 5.2 mph NE8.4 kmh NE 6.0 mph9.7 kmh 26.88 in910.3 mb 0.00 in0.0 mm 0.00 in/hr0.0 mm/hr 0.00 in0.0 mm
05:46 PM 67.0°F19.4°C 44.4°F6.9°C 44% 3.9 mph NE6.3 kmh NE 6.0 mph9.7 kmh 26.88 in910.3 mb 0.00 in0.0 mm 0.00 in/hr0.0 mm/hr 0.00 in0.0 mm
05:48 PM 67.0°F19.4°C 44.4°F6.9°C 44% 3.9 mph NNE6.3 kmh NNE 6.0 mph9.7 kmh 26.88 in910.3 mb 0.00 in0.0 mm 0.00 in/hr0.0 mm/hr 0.00 in0.0 mm
05:50 PM 67.0°F19.4°C 44.4°F6.9°C 44% 5.2 mph NE8.4 kmh NE 6.0 mph9.7 kmh 26.89 in910.6 mb 0.00 in0.0 mm 0.00 in/hr0.0 mm/hr 0.00 in0.0 mm
05:52 PM 67.0°F19.4°C 44.4°F6.9°C 44% 3.9 mph N6.3 kmh N 4.0 mph6.4 kmh 26.89 in910.6 mb 0.00 in0.0 mm 0.00 in/hr0.0 mm/hr 0.00 in0.0 mm
05:54 PM 67.0°F19.4°C 44.4°F6.9°C 44% 5.2 mph NNW8.4 kmh NNW 6.0 mph9.7 kmh 26.89 in910.6 mb 0.00 in0.0 mm 0.00 in/hr0.0 mm/hr 0.00 in0.0 mm
05:56 PM 67.0°F19.4°C 45.0°F7.2°C 45% 2.6 mph NNW4.2 kmh NNW 4.0 mph6.4 kmh 26.89 in910.6 mb 0.00 in0.0 mm 0.00 in/hr0.0 mm/hr 0.00 in0.0 mm
05:58 PM 67.0°F19.4°C 45.0°F7.2°C 45% 5.2 mph NNE8.4 kmh NNE 10.0 mph16.1 kmh 26.89 in910.6 mb 0.00 in0.0 mm 0.00 in/hr0.0 mm/hr 0.00 in0.0 mm
06:00 PM 67.0°F19.4°C 45.0°F7.2°C 45% 5.2 mph NNE8.4 kmh NNE 6.0 mph9.7 kmh 26.89 in910.6 mb 0.00 in0.0 mm 0.00 in/hr0.0 mm/hr 0.00 in0.0 mm
06:02 PM 67.0°F19.4°C 45.0°F7.2°C 45% 1.3 mph N2.1 kmh N 6.0 mph9.7 kmh 26.89 in910.6 mb 0.00 in0.0 mm 0.00 in/hr0.0 mm/hr 0.00 in0.0 mm
06:04 PM 67.0°F19.4°C 45.6°F7.6°C 46% 5.2 mph ENE8.4 kmh ENE 5.0 mph8.0 kmh 26.89 in910.6 mb 0.00 in0.0 mm 0.00 in/hr0.0 mm/hr 0.00 in0.0 mm
06:06 PM 67.0°F19.4°C 45.0°F7.2°C 45% 9.1 mph NE14.6 kmh NE 8.0 mph12.9 kmh 26.89 in910.6 mb 0.00 in0.0 mm 0.00 in/hr0.0 mm/hr 0.00 in0.0 mm
06:08 PM 67.0°F19.4°C 44.4°F6.9°C 44% 5.2 mph NE8.4 kmh NE 9.0 mph14.5 kmh 26.89 in910.6 mb 0.00 in0.0 mm 0.00 in/hr0.0 mm/hr 0.00 in0.0 mm
06:10 PM 67.0°F19.4°C 44.4°F6.9°C 44% 5.2 mph NE8.4 kmh NE 8.0 mph12.9 kmh 26.89 in910.6 mb 0.00 in0.0 mm 0.00 in/hr0.0 mm/hr 0.00 in0.0 mm
06:12 PM 67.0°F19.4°C 44.4°F6.9°C 44% 7.8 mph NNW12.6 kmh NNW 7.0 mph11.3 kmh 26.89 in910.6 mb 0.00 in0.0 mm 0.00 in/hr0.0 mm/hr 0.00 in0.0 mm
06:14 PM 67.0°F19.4°C 44.4°F6.9°C 44% 6.5 mph N10.5 kmh N 6.0 mph9.7 kmh 26.89 in910.6 mb 0.00 in0.0 mm 0.00 in/hr0.0 mm/hr 0.00 in0.0 mm
06:16 PM 67.0°F19.4°C 44.4°F6.9°C 44% 5.2 mph N8.4 kmh N 8.0 mph12.9 kmh 26.89 in910.6 mb 0.00 in0.0 mm 0.00 in/hr0.0 mm/hr 0.00 in0.0 mm
06:18 PM 67.0°F19.4°C 44.4°F6.9°C 44% 6.5 mph N10.5 kmh N 7.0 mph11.3 kmh 26.89 in910.6 mb 0.00 in0.0 mm 0.00 in/hr0.0 mm/hr 0.00 in0.0 mm
06:20 PM 67.0°F19.4°C 44.4°F6.9°C 44% 2.6 mph NNE4.2 kmh NNE 5.0 mph8.0 kmh 26.89 in910.6 mb 0.00 in0.0 mm 0.00 in/hr0.0 mm/hr 0.00 in0.0 mm
06:22 PM 67.0°F19.4°C 44.4°F6.9°C 44% 5.2 mph N8.4 kmh N 4.0 mph6.4 kmh 26.89 in910.6 mb 0.00 in0.0 mm 0.00 in/hr0.0 mm/hr 0.00 in0.0 mm
06:24 PM 67.0°F19.4°C 44.4°F6.9°C 44% 6.5 mph NNE10.5 kmh NNE 7.0 mph11.3 kmh 26.89 in910.6 mb 0.00 in0.0 mm 0.00 in/hr0.0 mm/hr 0.00 in0.0 mm
06:26 PM 67.0°F19.4°C 45.0°F7.2°C 45% 3.9 mph NE6.3 kmh NE 6.0 mph9.7 kmh 26.89 in910.6 mb 0.00 in0.0 mm 0.00 in/hr0.0 mm/hr 0.00 in0.0 mm
06:28 PM 67.0°F19.4°C 45.0°F7.2°C 45% 6.5 mph N10.5 kmh N 6.0 mph9.7 kmh 26.89 in910.6 mb 0.00 in0.0 mm 0.00 in/hr0.0 mm/hr 0.00 in0.0 mm
06:30 PM 67.0°F19.4°C 45.0°F7.2°C 45% 5.2 mph N8.4 kmh N 9.0 mph14.5 kmh 26.89 in910.6 mb 0.00 in0.0 mm 0.00 in/hr0.0 mm/hr 0.00 in0.0 mm
06:32 PM 67.0°F19.4°C 45.0°F7.2°C 45% 5.2 mph NNE8.4 kmh NNE 7.0 mph11.3 kmh 26.89 in910.6 mb 0.00 in0.0 mm 0.00 in/hr0.0 mm/hr 0.00 in0.0 mm
06:34 PM 67.0°F19.4°C 45.0°F7.2°C 45% 5.2 mph NNE8.4 kmh NNE 9.0 mph14.5 kmh 26.89 in910.6 mb 0.00 in0.0 mm 0.00 in/hr0.0 mm/hr 0.00 in0.0 mm
06:36 PM 67.0°F19.4°C 45.0°F7.2°C 45% 5.2 mph NE8.4 kmh NE 8.0 mph12.9 kmh 26.89 in910.6 mb 0.00 in0.0 mm 0.00 in/hr0.0 mm/hr 0.00 in0.0 mm
06:38 PM 67.0°F19.4°C 45.0°F7.2°C 45% 1.3 mph NNE2.1 kmh NNE 7.0 mph11.3 kmh 26.89 in910.6 mb 0.00 in0.0 mm 0.00 in/hr0.0 mm/hr 0.00 in0.0 mm
06:40 PM 66.0°F18.9°C 44.1°F6.7°C 45% 3.9 mph NE6.3 kmh NE 5.0 mph8.0 kmh 26.89 in910.6 mb 0.00 in0.0 mm 0.00 in/hr0.0 mm/hr 0.00 in0.0 mm
06:42 PM 66.0°F18.9°C 44.1°F6.7°C 45% 3.9 mph NE6.3 kmh NE 4.0 mph6.4 kmh 26.89 in910.6 mb 0.00 in0.0 mm 0.00 in/hr0.0 mm/hr 0.00 in0.0 mm
06:46 PM 66.0°F18.9°C 44.1°F6.7°C 45% 6.5 mph NNE10.5 kmh NNE 8.0 mph12.9 kmh 26.89 in910.6 mb 0.00 in0.0 mm 0.00 in/hr0.0 mm/hr 0.00 in0.0 mm
06:48 PM 66.0°F18.9°C 44.1°F6.7°C 45% 5.2 mph NE8.4 kmh NE 5.0 mph8.0 kmh 26.89 in910.6 mb 0.00 in0.0 mm 0.00 in/hr0.0 mm/hr 0.00 in0.0 mm
06:50 PM 66.0°F18.9°C 44.1°F6.7°C 45% 5.2 mph N8.4 kmh N 5.0 mph8.0 kmh 26.89 in910.6 mb 0.00 in0.0 mm 0.00 in/hr0.0 mm/hr 0.00 in0.0 mm
06:52 PM 66.0°F18.9°C 44.1°F6.7°C 45% 3.9 mph NE6.3 kmh NE 5.0 mph8.0 kmh 26.89 in910.6 mb 0.00 in0.0 mm 0.00 in/hr0.0 mm/hr 0.00 in0.0 mm
06:54 PM 66.0°F18.9°C 44.1°F6.7°C 45% 5.2 mph N8.4 kmh N 10.0 mph16.1 kmh 26.89 in910.6 mb 0.00 in0.0 mm 0.00 in/hr0.0 mm/hr 0.00 in0.0 mm
06:56 PM 66.0°F18.9°C 44.1°F6.7°C 45% 6.5 mph NE10.5 kmh NE 7.0 mph11.3 kmh 26.89 in910.6 mb 0.00 in0.0 mm 0.00 in/hr0.0 mm/hr 0.00 in0.0 mm
06:58 PM 66.0°F18.9°C 44.1°F6.7°C 45% 3.9 mph NNE6.3 kmh NNE 8.0 mph12.9 kmh 26.89 in910.6 mb 0.00 in0.0 mm 0.00 in/hr0.0 mm/hr 0.00 in0.0 mm
07:00 PM 66.0°F18.9°C 44.6°F7.0°C 46% 3.9 mph NNE6.3 kmh NNE 8.0 mph12.9 kmh 26.89 in910.6 mb 0.00 in0.0 mm 0.00 in/hr0.0 mm/hr 0.00 in0.0 mm
07:02 PM 66.0°F18.9°C 44.1°F6.7°C 45% 9.1 mph NE14.6 kmh NE 13.0 mph20.9 kmh 26.89 in910.6 mb 0.00 in0.0 mm 0.00 in/hr0.0 mm/hr 0.00 in0.0 mm
07:04 PM 66.0°F18.9°C 44.1°F6.7°C 45% 6.5 mph N10.5 kmh N 13.0 mph20.9 kmh 26.89 in910.6 mb 0.00 in0.0 mm 0.00 in/hr0.0 mm/hr 0.00 in0.0 mm
07:06 PM 66.0°F18.9°C 44.6°F7.0°C 46% 5.2 mph NNE8.4 kmh NNE 7.0 mph11.3 kmh 26.89 in910.6 mb 0.00 in0.0 mm 0.00 in/hr0.0 mm/hr 0.00 in0.0 mm
07:08 PM 66.0°F18.9°C 45.2°F7.3°C 47% 5.2 mph NE8.4 kmh NE 8.0 mph12.9 kmh 26.89 in910.6 mb 0.00 in0.0 mm 0.00 in/hr0.0 mm/hr 0.00 in0.0 mm
07:10 PM 66.0°F18.9°C 45.2°F7.3°C 47% 10.4 mph N16.7 kmh N 9.0 mph14.5 kmh 26.89 in910.6 mb 0.00 in0.0 mm 0.00 in/hr0.0 mm/hr 0.00 in0.0 mm
07:12 PM 66.0°F18.9°C 45.2°F7.3°C 47% 7.8 mph N12.6 kmh N 12.0 mph19.3 kmh 26.89 in910.6 mb 0.00 in0.0 mm 0.00 in/hr0.0 mm/hr 0.00 in0.0 mm
07:14 PM 66.0°F18.9°C 45.2°F7.3°C 47% 6.5 mph N10.5 kmh N 8.0 mph12.9 kmh 26.89 in910.6 mb 0.00 in0.0 mm 0.00 in/hr0.0 mm/hr 0.00 in0.0 mm
07:16 PM 65.0°F18.3°C 44.3°F6.8°C 47% 10.4 mph NE16.7 kmh NE 10.0 mph16.1 kmh 26.89 in910.6 mb 0.00 in0.0 mm 0.00 in/hr0.0 mm/hr 0.00 in0.0 mm
07:18 PM 65.0°F18.3°C 43.1°F6.2°C 45% 10.4 mph ENE16.7 kmh ENE 11.0 mph17.7 kmh 26.89 in910.6 mb 0.00 in0.0 mm 0.00 in/hr0.0 mm/hr 0.00 in0.0 mm
07:20 PM 65.0°F18.3°C 44.3°F6.8°C 47% 6.5 mph NE10.5 kmh NE 9.0 mph14.5 kmh 26.90 in910.9 mb 0.00 in0.0 mm 0.00 in/hr0.0 mm/hr 0.00 in0.0 mm
07:22 PM 65.0°F18.3°C 43.7°F6.5°C 46% 10.4 mph N16.7 kmh N 10.0 mph16.1 kmh 26.90 in910.9 mb 0.00 in0.0 mm 0.00 in/hr0.0 mm/hr 0.00 in0.0 mm
07:24 PM 65.0°F18.3°C 43.7°F6.5°C 46% 6.5 mph NE10.5 kmh NE 9.0 mph14.5 kmh 26.90 in910.9 mb 0.00 in0.0 mm 0.00 in/hr0.0 mm/hr 0.00 in0.0 mm
07:26 PM 65.0°F18.3°C 43.1°F6.2°C 45% 7.8 mph NE12.6 kmh NE 10.0 mph16.1 kmh 26.90 in910.9 mb 0.00 in0.0 mm 0.00 in/hr0.0 mm/hr 0.00 in0.0 mm
07:28 PM 65.0°F18.3°C 43.1°F6.2°C 45% 18.2 mph N29.3 kmh N 16.0 mph25.7 kmh 26.90 in910.9 mb 0.00 in0.0 mm 0.00 in/hr0.0 mm/hr 0.00 in0.0 mm
07:30 PM 65.0°F18.3°C 42.5°F5.8°C 44% 11.7 mph N18.8 kmh N 16.0 mph25.7 kmh 26.91 in911.3 mb 0.00 in0.0 mm 0.00 in/hr0.0 mm/hr 0.00 in0.0 mm
07:32 PM 65.0°F18.3°C 42.5°F5.8°C 44% 7.8 mph NNE12.6 kmh NNE 16.0 mph25.7 kmh 26.91 in911.3 mb 0.00 in0.0 mm 0.00 in/hr0.0 mm/hr 0.00 in0.0 mm
07:34 PM 65.0°F18.3°C 41.9°F5.5°C 43% 15.6 mph N25.1 kmh N 13.0 mph20.9 kmh 26.91 in911.3 mb 0.00 in0.0 mm 0.00 in/hr0.0 mm/hr 0.00 in0.0 mm
07:36 PM 63.9°F17.7°C 41.0°F5.0°C 43% 10.4 mph N16.7 kmh N 16.0 mph25.7 kmh 26.91 in911.3 mb 0.00 in0.0 mm 0.00 in/hr0.0 mm/hr 0.00 in0.0 mm
07:38 PM 63.9°F17.7°C 41.6°F5.3°C 44% 20.8 mph NW33.5 kmh NW 16.0 mph25.7 kmh 26.91 in911.3 mb 0.00 in0.0 mm 0.00 in/hr0.0 mm/hr 0.00 in0.0 mm
07:40 PM 63.9°F17.7°C 41.0°F5.0°C 43% 15.6 mph N25.1 kmh N 17.0 mph27.4 kmh 26.92 in911.6 mb 0.00 in0.0 mm 0.00 in/hr0.0 mm/hr 0.00 in0.0 mm
07:42 PM 63.9°F17.7°C 41.0°F5.0°C 43% 9.1 mph N14.6 kmh N 16.0 mph25.7 kmh 26.92 in911.6 mb 0.00 in0.0 mm 0.00 in/hr0.0 mm/hr 0.00 in0.0 mm
07:44 PM 63.9°F17.7°C 41.0°F5.0°C 43% 10.4 mph N16.7 kmh N 20.0 mph32.2 kmh 26.92 in911.6 mb 0.00 in0.0 mm 0.00 in/hr0.0 mm/hr 0.00 in0.0 mm
07:46 PM 63.9°F17.7°C 41.6°F5.3°C 44% 7.8 mph NNW12.6 kmh NNW 19.0 mph30.6 kmh 26.92 in911.6 mb 0.00 in0.0 mm 0.00 in/hr0.0 mm/hr 0.00 in0.0 mm
07:48 PM 63.9°F17.7°C 41.6°F5.3°C 44% 10.4 mph ENE16.7 kmh ENE 17.0 mph27.4 kmh 26.92 in911.6 mb 0.00 in0.0 mm 0.00 in/hr0.0 mm/hr 0.00 in0.0 mm
07:50 PM 62.9°F17.2°C 40.7°F4.8°C 44% 13.0 mph NNE20.9 kmh NNE 19.0 mph30.6 kmh 26.93 in912.0 mb 0.00 in0.0 mm 0.00 in/hr0.0 mm/hr 0.00 in0.0 mm
07:52 PM 62.9°F17.2°C 40.7°F4.8°C 44% 10.4 mph N16.7 kmh N 14.0 mph22.5 kmh 26.93 in912.0 mb 0.00 in0.0 mm 0.00 in/hr0.0 mm/hr 0.00 in0.0 mm
07:54 PM 62.9°F17.2°C 40.7°F4.8°C 44% 24.7 mph N39.8 kmh N 19.0 mph30.6 kmh 26.93 in912.0 mb 0.00 in0.0 mm 0.00 in/hr0.0 mm/hr 0.00 in0.0 mm
07:56 PM 62.9°F17.2°C 40.7°F4.8°C 44% 10.4 mph N16.7 kmh N 16.0 mph25.7 kmh 26.93 in912.0 mb 0.00 in0.0 mm 0.00 in/hr0.0 mm/hr 0.00 in0.0 mm
07:58 PM 62.9°F17.2°C 40.7°F4.8°C 44% 6.5 mph WSW10.5 kmh WSW 12.0 mph19.3 kmh 26.93 in912.0 mb 0.00 in0.0 mm 0.00 in/hr0.0 mm/hr 0.00 in0.0 mm
08:00 PM 62.9°F17.2°C 40.7°F4.8°C 44% 3.9 mph N6.3 kmh N 15.0 mph24.1 kmh 26.93 in912.0 mb 0.00 in0.0 mm 0.00 in/hr0.0 mm/hr 0.00 in0.0 mm
08:02 PM 62.9°F17.2°C 40.7°F4.8°C 44% 11.7 mph N18.8 kmh N 15.0 mph24.1 kmh 26.93 in912.0 mb 0.00 in0.0 mm 0.00 in/hr0.0 mm/hr 0.00 in0.0 mm
08:04 PM 62.9°F17.2°C 40.7°F4.8°C 44% 13.0 mph N20.9 kmh N 13.0 mph20.9 kmh 26.93 in912.0 mb 0.00 in0.0 mm 0.00 in/hr0.0 mm/hr 0.00 in0.0 mm
08:06 PM 61.9°F16.6°C 39.1°F3.9°C 43% 14.3 mph N23.0 kmh N 12.0 mph19.3 kmh 26.93 in912.0 mb 0.00 in0.0 mm 0.00 in/hr0.0 mm/hr 0.00 in0.0 mm
08:08 PM 62.9°F17.2°C 39.5°F4.2°C 42% 10.4 mph NE16.7 kmh NE 17.0 mph27.4 kmh 26.93 in912.0 mb 0.00 in0.0 mm 0.00 in/hr0.0 mm/hr 0.00 in0.0 mm
08:10 PM 62.9°F17.2°C 38.9°F3.8°C 41% 6.5 mph N10.5 kmh N 17.0 mph27.4 kmh 26.93 in912.0 mb 0.00 in0.0 mm 0.00 in/hr0.0 mm/hr 0.00 in0.0 mm
08:12 PM 62.9°F17.2°C 38.2°F3.4°C 40% 10.4 mph N16.7 kmh N 15.0 mph24.1 kmh 26.93 in912.0 mb 0.00 in0.0 mm 0.00 in/hr0.0 mm/hr 0.00 in0.0 mm
08:14 PM 62.9°F17.2°C 38.2°F3.4°C 40% 10.4 mph NNE16.7 kmh NNE 12.0 mph19.3 kmh 26.93 in912.0 mb 0.00 in0.0 mm 0.00 in/hr0.0 mm/hr 0.00 in0.0 mm
08:16 PM 62.9°F17.2°C 38.2°F3.4°C 40% 13.0 mph N20.9 kmh N 16.0 mph25.7 kmh 26.93 in912.0 mb 0.00 in0.0 mm 0.00 in/hr0.0 mm/hr 0.00 in0.0 mm
08:18 PM 62.9°F17.2°C 38.2°F3.4°C 40% 11.7 mph NNE18.8 kmh NNE 17.0 mph27.4 kmh 26.93 in912.0 mb 0.00 in0.0 mm 0.00 in/hr0.0 mm/hr 0.00 in0.0 mm
08:20 PM 62.9°F17.2°C 38.2°F3.4°C 40% 19.5 mph N31.4 kmh N 17.0 mph27.4 kmh 26.93 in912.0 mb 0.00 in0.0 mm 0.00 in/hr0.0 mm/hr 0.00 in0.0 mm
08:22 PM 62.9°F17.2°C 38.2°F3.4°C 40% 11.7 mph N18.8 kmh N 16.0 mph25.7 kmh 26.93 in912.0 mb 0.00 in0.0 mm 0.00 in/hr0.0 mm/hr 0.00 in0.0 mm
08:24 PM 62.9°F17.2°C 38.2°F3.4°C 40% 19.5 mph N31.4 kmh N 18.0 mph29.0 kmh 26.93 in912.0 mb 0.00 in0.0 mm 0.00 in/hr0.0 mm/hr 0.00 in0.0 mm
08:26 PM 62.9°F17.2°C 38.2°F3.4°C 40% 9.1 mph N14.6 kmh N 16.0 mph25.7 kmh 26.93 in912.0 mb 0.00 in0.0 mm 0.00 in/hr0.0 mm/hr 0.00 in0.0 mm
08:28 PM 62.9°F17.2°C 38.2°F3.4°C 40% 11.7 mph N18.8 kmh N 14.0 mph22.5 kmh 26.93 in912.0 mb 0.00 in0.0 mm 0.00 in/hr0.0 mm/hr 0.00 in0.0 mm
08:30 PM 62.9°F17.2°C 38.2°F3.4°C 40% 7.8 mph NNW12.6 kmh NNW 12.0 mph19.3 kmh 26.93 in912.0 mb 0.00 in0.0 mm 0.00 in/hr0.0 mm/hr 0.00 in0.0 mm
08:32 PM 62.9°F17.2°C 38.2°F3.4°C 40% 6.5 mph N10.5 kmh N 11.0 mph17.7 kmh 26.93 in912.0 mb 0.00 in0.0 mm 0.00 in/hr0.0 mm/hr 0.00 in0.0 mm
08:34 PM 61.9°F16.6°C 37.3°F2.9°C 40% 7.8 mph NNE12.6 kmh NNE 10.0 mph16.1 kmh 26.93 in912.0 mb 0.00 in0.0 mm 0.00 in/hr0.0 mm/hr 0.00 in0.0 mm
08:36 PM 61.9°F16.6°C 37.3°F2.9°C 40% 9.1 mph N14.6 kmh N 10.0 mph16.1 kmh 26.93 in912.0 mb 0.00 in0.0 mm 0.00 in/hr0.0 mm/hr 0.00 in0.0 mm
08:38 PM 62.9°F17.2°C 38.2°F3.4°C 40% 5.2 mph N8.4 kmh N 12.0 mph19.3 kmh 26.93 in912.0 mb 0.00 in0.0 mm 0.00 in/hr0.0 mm/hr 0.00 in0.0 mm
08:40 PM 62.9°F17.2°C 38.9°F3.8°C 41% 6.5 mph N10.5 kmh N 6.0 mph9.7 kmh 26.94 in912.3 mb 0.00 in0.0 mm 0.00 in/hr0.0 mm/hr 0.00 in0.0 mm
08:42 PM 61.9°F16.6°C 38.5°F3.6°C 42% 7.8 mph WNW12.6 kmh WNW 8.0 mph12.9 kmh 26.94 in912.3 mb 0.00 in0.0 mm 0.00 in/hr0.0 mm/hr 0.00 in0.0 mm
08:44 PM 61.9°F16.6°C 39.1°F3.9°C 43% 5.2 mph NW8.4 kmh NW 9.0 mph14.5 kmh 26.94 in912.3 mb 0.00 in0.0 mm 0.00 in/hr0.0 mm/hr 0.00 in0.0 mm
08:46 PM 61.9°F16.6°C 39.1°F3.9°C 43% 5.2 mph N8.4 kmh N 4.0 mph6.4 kmh 26.94 in912.3 mb 0.00 in0.0 mm 0.00 in/hr0.0 mm/hr 0.00 in0.0 mm
08:48 PM 61.9°F16.6°C 39.7°F4.3°C 44% 3.9 mph N6.3 kmh N 5.0 mph8.0 kmh 26.94 in912.3 mb 0.00 in0.0 mm 0.00 in/hr0.0 mm/hr 0.00 in0.0 mm
08:50 PM 60.8°F16.0°C 38.8°F3.8°C 44% 3.9 mph NE6.3 kmh NE 5.0 mph8.0 kmh 26.95 in912.6 mb 0.00 in0.0 mm 0.00 in/hr0.0 mm/hr 0.00 in0.0 mm
08:52 PM 60.8°F16.0°C 38.8°F3.8°C 44% 5.2 mph N8.4 kmh N 6.0 mph9.7 kmh 26.95 in912.6 mb 0.00 in0.0 mm 0.00 in/hr0.0 mm/hr 0.00 in0.0 mm
08:54 PM 60.8°F16.0°C 38.8°F3.8°C 44% 3.9 mph NE6.3 kmh NE 4.0 mph6.4 kmh 26.95 in912.6 mb 0.00 in0.0 mm 0.00 in/hr0.0 mm/hr 0.00 in0.0 mm
08:56 PM 60.8°F16.0°C 39.4°F4.1°C 45% 2.6 mph NE4.2 kmh NE 5.0 mph8.0 kmh 26.95 in912.6 mb 0.00 in0.0 mm 0.00 in/hr0.0 mm/hr 0.00 in0.0 mm
08:58 PM 60.8°F16.0°C 38.8°F3.8°C 44% 3.9 mph N6.3 kmh N 4.0 mph6.4 kmh 26.95 in912.6 mb 0.00 in0.0 mm 0.00 in/hr0.0 mm/hr 0.00 in0.0 mm
09:00 PM 60.8°F16.0°C 38.8°F3.8°C 44% 9.1 mph N14.6 kmh N 7.0 mph11.3 kmh 26.95 in912.6 mb 0.00 in0.0 mm 0.00 in/hr0.0 mm/hr 0.00 in0.0 mm
09:02 PM 60.8°F16.0°C 38.8°F3.8°C 44% 6.5 mph N10.5 kmh N 8.0 mph12.9 kmh 26.95 in912.6 mb 0.00 in0.0 mm 0.00 in/hr0.0 mm/hr 0.00 in0.0 mm
09:04 PM 60.8°F16.0°C 38.2°F3.4°C 43% 10.4 mph N16.7 kmh N 9.0 mph14.5 kmh 26.95 in912.6 mb 0.00 in0.0 mm 0.00 in/hr0.0 mm/hr 0.00 in0.0 mm
09:06 PM 60.8°F16.0°C 38.8°F3.8°C 44% 6.5 mph NNW10.5 kmh NNW 7.0 mph11.3 kmh 26.95 in912.6 mb 0.00 in0.0 mm 0.00 in/hr0.0 mm/hr 0.00 in0.0 mm
09:08 PM 60.8°F16.0°C 38.8°F3.8°C 44% 6.5 mph N10.5 kmh N 6.0 mph9.7 kmh 26.95 in912.6 mb 0.00 in0.0 mm 0.00 in/hr0.0 mm/hr 0.00 in0.0 mm
09:10 PM 61.9°F16.6°C 39.7°F4.3°C 44% 3.9 mph NNW6.3 kmh NNW 9.0 mph14.5 kmh 26.95 in912.6 mb 0.00 in0.0 mm 0.00 in/hr0.0 mm/hr 0.00 in0.0 mm
09:12 PM 61.9°F16.6°C 39.7°F4.3°C 44% 6.5 mph N10.5 kmh N 8.0 mph12.9 kmh 26.95 in912.6 mb 0.00 in0.0 mm 0.00 in/hr0.0 mm/hr 0.00 in0.0 mm
09:14 PM 61.9°F16.6°C 39.7°F4.3°C 44% 9.1 mph NW14.6 kmh NW 8.0 mph12.9 kmh 26.95 in912.6 mb 0.00 in0.0 mm 0.00 in/hr0.0 mm/hr 0.00 in0.0 mm
09:16 PM 61.9°F16.6°C 39.7°F4.3°C 44% 3.9 mph N6.3 kmh N 6.0 mph9.7 kmh 26.95 in912.6 mb 0.00 in0.0 mm 0.00 in/hr0.0 mm/hr 0.00 in0.0 mm
09:18 PM 61.9°F16.6°C 39.7°F4.3°C 44% 5.2 mph NNW8.4 kmh NNW 7.0 mph11.3 kmh 26.95 in912.6 mb 0.00 in0.0 mm 0.00 in/hr0.0 mm/hr 0.00 in0.0 mm
09:20 PM 61.9°F16.6°C 39.7°F4.3°C 44% 6.5 mph N10.5 kmh N 6.0 mph9.7 kmh 26.95 in912.6 mb 0.00 in0.0 mm 0.00 in/hr0.0 mm/hr 0.00 in0.0 mm
09:22 PM 60.8°F16.0°C 39.4°F4.1°C 45% 13.0 mph N20.9 kmh N 10.0 mph16.1 kmh 26.95 in912.6 mb 0.00 in0.0 mm 0.00 in/hr0.0 mm/hr 0.00 in0.0 mm
09:24 PM 61.9°F16.6°C 40.9°F4.9°C 46% 11.7 mph NNE18.8 kmh NNE 11.0 mph17.7 kmh 26.95 in912.6 mb 0.00 in0.0 mm 0.00 in/hr0.0 mm/hr 0.00 in0.0 mm
09:26 PM 61.9°F16.6°C 41.4°F5.2°C 47% 7.8 mph NW12.6 kmh NW 7.0 mph11.3 kmh 26.95 in912.6 mb 0.00 in0.0 mm 0.00 in/hr0.0 mm/hr 0.00 in0.0 mm
09:28 PM 60.8°F16.0°C 40.5°F4.7°C 47% 3.9 mph NNW6.3 kmh NNW 7.0 mph11.3 kmh 26.95 in912.6 mb 0.00 in0.0 mm 0.00 in/hr0.0 mm/hr 0.00 in0.0 mm
09:30 PM 60.8°F16.0°C 41.0°F5.0°C 48% 9.1 mph NNE14.6 kmh NNE 8.0 mph12.9 kmh 26.96 in913.0 mb 0.00 in0.0 mm 0.00 in/hr0.0 mm/hr 0.00 in0.0 mm
09:32 PM 60.8°F16.0°C 41.6°F5.3°C 49% 5.2 mph N8.4 kmh N 7.0 mph11.3 kmh 26.96 in913.0 mb 0.00 in0.0 mm 0.00 in/hr0.0 mm/hr 0.00 in0.0 mm
09:34 PM 60.8°F16.0°C 42.1°F5.6°C 50% 7.8 mph NNW12.6 kmh NNW 8.0 mph12.9 kmh 26.96 in913.0 mb 0.00 in0.0 mm 0.00 in/hr0.0 mm/hr 0.00 in0.0 mm
09:36 PM 60.8°F16.0°C 42.6°F5.9°C 51% 7.8 mph NNW12.6 kmh NNW 8.0 mph12.9 kmh 26.96 in913.0 mb 0.00 in0.0 mm 0.00 in/hr0.0 mm/hr 0.00 in0.0 mm
09:38 PM 60.8°F16.0°C 43.1°F6.2°C 52% 10.4 mph N16.7 kmh N 8.0 mph12.9 kmh 26.96 in913.0 mb 0.00 in0.0 mm 0.00 in/hr0.0 mm/hr 0.00 in0.0 mm
09:40 PM 60.8°F16.0°C 43.1°F6.2°C 52% 10.4 mph NNE16.7 kmh NNE 8.0 mph12.9 kmh 26.97 in913.3 mb 0.00 in0.0 mm 0.00 in/hr0.0 mm/hr 0.00 in0.0 mm
09:42 PM 60.8°F16.0°C 43.6°F6.4°C 53% 6.5 mph N10.5 kmh N 10.0 mph16.1 kmh 26.97 in913.3 mb 0.00 in0.0 mm 0.00 in/hr0.0 mm/hr 0.00 in0.0 mm
09:44 PM 60.8°F16.0°C 44.1°F6.7°C 54% 9.1 mph N14.6 kmh N 11.0 mph17.7 kmh 26.97 in913.3 mb 0.00 in0.0 mm 0.00 in/hr0.0 mm/hr 0.00 in0.0 mm
09:46 PM 60.8°F16.0°C 44.6°F7.0°C 55% 3.9 mph N6.3 kmh N 7.0 mph11.3 kmh 26.97 in913.3 mb 0.00 in0.0 mm 0.00 in/hr0.0 mm/hr 0.00 in0.0 mm
09:48 PM 60.8°F16.0°C 45.1°F7.3°C 56% 9.1 mph N14.6 kmh N 8.0 mph12.9 kmh 26.97 in913.3 mb 0.00 in0.0 mm 0.00 in/hr0.0 mm/hr 0.00 in0.0 mm
09:50 PM 59.8°F15.4°C 44.6°F7.0°C 57% 7.8 mph NNW12.6 kmh NNW 13.0 mph20.9 kmh 26.97 in913.3 mb 0.00 in0.0 mm 0.00 in/hr0.0 mm/hr 0.00 in0.0 mm
09:52 PM 59.8°F15.4°C 45.5°F7.5°C 59% 3.9 mph NE6.3 kmh NE 12.0 mph19.3 kmh 26.97 in913.3 mb 0.00 in0.0 mm 0.00 in/hr0.0 mm/hr 0.00 in0.0 mm
09:56 PM 59.8°F15.4°C 44.6°F7.0°C 57% 6.5 mph N10.5 kmh N 9.0 mph14.5 kmh 26.97 in913.3 mb 0.00 in0.0 mm 0.00 in/hr0.0 mm/hr 0.00 in0.0 mm
09:58 PM 59.8°F15.4°C 43.6°F6.4°C 55% 5.2 mph NE8.4 kmh NE 7.0 mph11.3 kmh 26.97 in913.3 mb 0.00 in0.0 mm 0.00 in/hr0.0 mm/hr 0.00 in0.0 mm
10:00 PM 59.8°F15.4°C 43.6°F6.4°C 55% 3.9 mph NE6.3 kmh NE 6.0 mph9.7 kmh 26.97 in913.3 mb 0.00 in0.0 mm 0.00 in/hr0.0 mm/hr 0.00 in0.0 mm
10:02 PM 59.8°F15.4°C 43.6°F6.4°C 55% 3.9 mph NE6.3 kmh NE 5.0 mph8.0 kmh 26.97 in913.3 mb 0.00 in0.0 mm 0.00 in/hr0.0 mm/hr 0.00 in0.0 mm
10:04 PM 59.8°F15.4°C 43.1°F6.2°C 54% 5.2 mph ENE8.4 kmh ENE 6.0 mph9.7 kmh 26.97 in913.3 mb 0.00 in0.0 mm 0.00 in/hr0.0 mm/hr 0.00 in0.0 mm
10:06 PM 60.8°F16.0°C 43.6°F6.4°C 53% 5.2 mph NE8.4 kmh NE 5.0 mph8.0 kmh 26.97 in913.3 mb 0.00 in0.0 mm 0.00 in/hr0.0 mm/hr 0.00 in0.0 mm
10:08 PM 60.8°F16.0°C 43.1°F6.2°C 52% 6.5 mph ENE10.5 kmh ENE 7.0 mph11.3 kmh 26.97 in913.3 mb 0.00 in0.0 mm 0.00 in/hr0.0 mm/hr 0.00 in0.0 mm
10:10 PM 60.8°F16.0°C 44.6°F7.0°C 55% 7.8 mph NE12.6 kmh NE 8.0 mph12.9 kmh 26.97 in913.3 mb 0.00 in0.0 mm 0.00 in/hr0.0 mm/hr 0.00 in0.0 mm
10:12 PM 60.8°F16.0°C 45.1°F7.3°C 56% 7.8 mph NE12.6 kmh NE 9.0 mph14.5 kmh 26.97 in913.3 mb 0.00 in0.0 mm 0.00 in/hr0.0 mm/hr 0.00 in0.0 mm
10:14 PM 60.8°F16.0°C 45.1°F7.3°C 56% 7.8 mph ENE12.6 kmh ENE 8.0 mph12.9 kmh 26.97 in913.3 mb 0.00 in0.0 mm 0.00 in/hr0.0 mm/hr 0.00 in0.0 mm
10:16 PM 60.8°F16.0°C 45.1°F7.3°C 56% 6.5 mph NNE10.5 kmh NNE 9.0 mph14.5 kmh 26.97 in913.3 mb 0.00 in0.0 mm 0.00 in/hr0.0 mm/hr 0.00 in0.0 mm
10:18 PM 60.8°F16.0°C 45.1°F7.3°C 56% 6.5 mph NE10.5 kmh NE 10.0 mph16.1 kmh 26.97 in913.3 mb 0.00 in0.0 mm 0.00 in/hr0.0 mm/hr 0.00 in0.0 mm
10:20 PM 60.8°F16.0°C 45.5°F7.5°C 57% 7.8 mph NE12.6 kmh NE 8.0 mph12.9 kmh 26.96 in913.0 mb 0.00 in0.0 mm 0.00 in/hr0.0 mm/hr 0.00 in0.0 mm
10:22 PM 60.8°F16.0°C 45.5°F7.5°C 57% 7.8 mph ENE12.6 kmh ENE 7.0 mph11.3 kmh 26.96 in913.0 mb 0.00 in0.0 mm 0.00 in/hr0.0 mm/hr 0.00 in0.0 mm
10:24 PM 60.8°F16.0°C 45.5°F7.5°C 57% 5.2 mph E8.4 kmh E 8.0 mph12.9 kmh 26.96 in913.0 mb 0.00 in0.0 mm 0.00 in/hr0.0 mm/hr 0.00 in0.0 mm
10:26 PM 60.8°F16.0°C 46.0°F7.8°C 58% 3.9 mph ENE6.3 kmh ENE 8.0 mph12.9 kmh 26.96 in913.0 mb 0.00 in0.0 mm 0.00 in/hr0.0 mm/hr 0.00 in0.0 mm
10:28 PM 60.8°F16.0°C 46.0°F7.8°C 58% 5.2 mph NE8.4 kmh NE 8.0 mph12.9 kmh 26.96 in913.0 mb 0.00 in0.0 mm 0.00 in/hr0.0 mm/hr 0.00 in0.0 mm
10:30 PM 60.8°F16.0°C 46.0°F7.8°C 58% 6.5 mph ENE10.5 kmh ENE 7.0 mph11.3 kmh 26.95 in912.6 mb 0.00 in0.0 mm 0.00 in/hr0.0 mm/hr 0.00 in0.0 mm
10:32 PM 60.8°F16.0°C 46.4°F8.0°C 59% 6.5 mph NE10.5 kmh NE 8.0 mph12.9 kmh 26.95 in912.6 mb 0.00 in0.0 mm 0.00 in/hr0.0 mm/hr 0.00 in0.0 mm
10:34 PM 60.8°F16.0°C 46.4°F8.0°C 59% 6.5 mph NE10.5 kmh NE 6.0 mph9.7 kmh 26.95 in912.6 mb 0.00 in0.0 mm 0.00 in/hr0.0 mm/hr 0.00 in0.0 mm
10:36 PM 59.8°F15.4°C 45.5°F7.5°C 59% 7.8 mph NE12.6 kmh NE 6.0 mph9.7 kmh 26.95 in912.6 mb 0.00 in0.0 mm 0.00 in/hr0.0 mm/hr 0.00 in0.0 mm
10:38 PM 59.8°F15.4°C 45.5°F7.5°C 59% 5.2 mph ENE8.4 kmh ENE 8.0 mph12.9 kmh 26.95 in912.6 mb 0.00 in0.0 mm 0.00 in/hr0.0 mm/hr 0.00 in0.0 mm
10:40 PM 59.8°F15.4°C 45.5°F7.5°C 59% 3.9 mph NE6.3 kmh NE 5.0 mph8.0 kmh 26.95 in912.6 mb 0.00 in0.0 mm 0.00 in/hr0.0 mm/hr 0.00 in0.0 mm
10:42 PM 59.8°F15.4°C 45.5°F7.5°C 59% 6.5 mph NE10.5 kmh NE 6.0 mph9.7 kmh 26.95 in912.6 mb 0.00 in0.0 mm 0.00 in/hr0.0 mm/hr 0.00 in0.0 mm
10:44 PM 59.8°F15.4°C 45.5°F7.5°C 59% 3.9 mph ENE6.3 kmh ENE 5.0 mph8.0 kmh 26.95 in912.6 mb 0.00 in0.0 mm 0.00 in/hr0.0 mm/hr 0.00 in0.0 mm
10:46 PM 59.8°F15.4°C 45.5°F7.5°C 59% 5.2 mph NE8.4 kmh NE 5.0 mph8.0 kmh 26.95 in912.6 mb 0.00 in0.0 mm 0.00 in/hr0.0 mm/hr 0.00 in0.0 mm
10:48 PM 59.8°F15.4°C 45.5°F7.5°C 59% 5.2 mph NE8.4 kmh NE 5.0 mph8.0 kmh 26.95 in912.6 mb 0.00 in0.0 mm 0.00 in/hr0.0 mm/hr 0.00 in0.0 mm
10:50 PM 59.8°F15.4°C 45.9°F7.7°C 60% 6.5 mph NE10.5 kmh NE 5.0 mph8.0 kmh 26.96 in913.0 mb 0.00 in0.0 mm 0.00 in/hr0.0 mm/hr 0.00 in0.0 mm
10:52 PM 59.8°F15.4°C 45.9°F7.7°C 60% 3.9 mph NE6.3 kmh NE 5.0 mph8.0 kmh 26.96 in913.0 mb 0.00 in0.0 mm 0.00 in/hr0.0 mm/hr 0.00 in0.0 mm
10:54 PM 59.8°F15.4°C 45.9°F7.7°C 60% 5.2 mph NE8.4 kmh NE 5.0 mph8.0 kmh 26.96 in913.0 mb 0.00 in0.0 mm 0.00 in/hr0.0 mm/hr 0.00 in0.0 mm
10:56 PM 59.8°F15.4°C 46.3°F7.9°C 61% 5.2 mph NNE8.4 kmh NNE 6.0 mph9.7 kmh 26.96 in913.0 mb 0.00 in0.0 mm 0.00 in/hr0.0 mm/hr 0.00 in0.0 mm
10:58 PM 59.8°F15.4°C 46.3°F7.9°C 61% 3.9 mph NE6.3 kmh NE 6.0 mph9.7 kmh 26.96 in913.0 mb 0.00 in0.0 mm 0.00 in/hr0.0 mm/hr 0.00 in0.0 mm
11:00 PM 59.8°F15.4°C 45.9°F7.7°C 60% 3.9 mph NNE6.3 kmh NNE 6.0 mph9.7 kmh 26.97 in913.3 mb 0.00 in0.0 mm 0.00 in/hr0.0 mm/hr 0.00 in0.0 mm
11:02 PM 59.8°F15.4°C 45.9°F7.7°C 60% 3.9 mph N6.3 kmh N 5.0 mph8.0 kmh 26.97 in913.3 mb 0.00 in0.0 mm 0.00 in/hr0.0 mm/hr 0.00 in0.0 mm
11:04 PM 59.8°F15.4°C 45.9°F7.7°C 60% 6.5 mph N10.5 kmh N 8.0 mph12.9 kmh 26.97 in913.3 mb 0.00 in0.0 mm 0.00 in/hr0.0 mm/hr 0.00 in0.0 mm
11:06 PM 59.8°F15.4°C 46.3°F7.9°C 61% 9.1 mph N14.6 kmh N 9.0 mph14.5 kmh 26.97 in913.3 mb 0.00 in0.0 mm 0.00 in/hr0.0 mm/hr 0.00 in0.0 mm
11:08 PM 59.8°F15.4°C 46.3°F7.9°C 61% 5.2 mph N8.4 kmh N 10.0 mph16.1 kmh 26.97 in913.3 mb 0.00 in0.0 mm 0.00 in/hr0.0 mm/hr 0.00 in0.0 mm
11:10 PM 59.8°F15.4°C 46.8°F8.2°C 62% 6.5 mph N10.5 kmh N 10.0 mph16.1 kmh 26.97 in913.3 mb 0.00 in0.0 mm 0.00 in/hr0.0 mm/hr 0.00 in0.0 mm
11:12 PM 59.8°F15.4°C 46.8°F8.2°C 62% 9.1 mph N14.6 kmh N 10.0 mph16.1 kmh 26.97 in913.3 mb 0.00 in0.0 mm 0.00 in/hr0.0 mm/hr 0.00 in0.0 mm
11:14 PM 58.8°F14.9°C 45.4°F7.4°C 61% 7.8 mph NNE12.6 kmh NNE 10.0 mph16.1 kmh 26.97 in913.3 mb 0.00 in0.0 mm 0.00 in/hr0.0 mm/hr 0.00 in0.0 mm
11:16 PM 58.8°F14.9°C 45.8°F7.7°C 62% 6.5 mph NNE10.5 kmh NNE 11.0 mph17.7 kmh 26.97 in913.3 mb 0.00 in0.0 mm 0.00 in/hr0.0 mm/hr 0.00 in0.0 mm
11:18 PM 58.8°F14.9°C 45.8°F7.7°C 62% 7.8 mph N12.6 kmh N 10.0 mph16.1 kmh 26.97 in913.3 mb 0.00 in0.0 mm 0.00 in/hr0.0 mm/hr 0.00 in0.0 mm
11:20 PM 58.8°F14.9°C 46.2°F7.9°C 63% 6.5 mph N10.5 kmh N 9.0 mph14.5 kmh 26.98 in913.6 mb 0.00 in0.0 mm 0.00 in/hr0.0 mm/hr 0.00 in0.0 mm
11:22 PM 58.8°F14.9°C 46.2°F7.9°C 63% 6.5 mph N10.5 kmh N 9.0 mph14.5 kmh 26.98 in913.6 mb 0.00 in0.0 mm 0.00 in/hr0.0 mm/hr 0.00 in0.0 mm
11:24 PM 58.8°F14.9°C 46.2°F7.9°C 63% 6.5 mph N10.5 kmh N 8.0 mph12.9 kmh 26.98 in913.6 mb 0.00 in0.0 mm 0.00 in/hr0.0 mm/hr 0.00 in0.0 mm
11:26 PM 58.8°F14.9°C 46.2°F7.9°C 63% 7.8 mph N12.6 kmh N 7.0 mph11.3 kmh 26.98 in913.6 mb 0.00 in0.0 mm 0.00 in/hr0.0 mm/hr 0.00 in0.0 mm
11:28 PM 57.7°F14.3°C 45.7°F7.6°C 64% 9.1 mph N14.6 kmh N 10.0 mph16.1 kmh 26.98 in913.6 mb 0.00 in0.0 mm 0.00 in/hr0.0 mm/hr 0.00 in0.0 mm
11:30 PM 57.7°F14.3°C 45.7°F7.6°C 64% 3.9 mph NNE6.3 kmh NNE 5.0 mph8.0 kmh 26.99 in914.0 mb 0.00 in0.0 mm 0.00 in/hr0.0 mm/hr 0.00 in0.0 mm
11:32 PM 57.7°F14.3°C 46.1°F7.8°C 65% 6.5 mph NNE10.5 kmh NNE 10.0 mph16.1 kmh 26.99 in914.0 mb 0.00 in0.0 mm 0.00 in/hr0.0 mm/hr 0.00 in0.0 mm
11:34 PM 57.7°F14.3°C 46.1°F7.8°C 65% 3.9 mph NNW6.3 kmh NNW 8.0 mph12.9 kmh 26.99 in914.0 mb 0.00 in0.0 mm 0.00 in/hr0.0 mm/hr 0.00 in0.0 mm
11:36 PM 57.7°F14.3°C 46.5°F8.1°C 66% 5.2 mph N8.4 kmh N 8.0 mph12.9 kmh 26.99 in914.0 mb 0.00 in0.0 mm 0.00 in/hr0.0 mm/hr 0.00 in0.0 mm
11:38 PM 57.7°F14.3°C 46.5°F8.1°C 66% 5.2 mph N8.4 kmh N 7.0 mph11.3 kmh 26.99 in914.0 mb 0.00 in0.0 mm 0.00 in/hr0.0 mm/hr 0.00 in0.0 mm
11:40 PM 57.7°F14.3°C 46.5°F8.1°C 66% 7.8 mph N12.6 kmh N 10.0 mph16.1 kmh 26.99 in914.0 mb 0.00 in0.0 mm 0.00 in/hr0.0 mm/hr 0.00 in0.0 mm
11:42 PM 57.7°F14.3°C 46.5°F8.1°C 66% 6.5 mph N10.5 kmh N 6.0 mph9.7 kmh 26.99 in914.0 mb 0.00 in0.0 mm 0.00 in/hr0.0 mm/hr 0.00 in0.0 mm
11:44 PM 56.7°F13.7°C 45.9°F7.7°C 67% 5.2 mph NW8.4 kmh NW 8.0 mph12.9 kmh 26.99 in914.0 mb 0.00 in0.0 mm 0.00 in/hr0.0 mm/hr 0.00 in0.0 mm
11:46 PM 56.7°F13.7°C 45.9°F7.7°C 67% 3.9 mph NE6.3 kmh NE 9.0 mph14.5 kmh 26.99 in914.0 mb 0.00 in0.0 mm 0.00 in/hr0.0 mm/hr 0.00 in0.0 mm
11:48 PM 56.7°F13.7°C 46.3°F7.9°C 68% 6.5 mph NNE10.5 kmh NNE 7.0 mph11.3 kmh 26.99 in914.0 mb 0.00 in0.0 mm 0.00 in/hr0.0 mm/hr 0.00 in0.0 mm
11:50 PM 56.7°F13.7°C 46.3°F7.9°C 68% 7.8 mph N12.6 kmh N 9.0 mph14.5 kmh 26.99 in914.0 mb 0.00 in0.0 mm 0.00 in/hr0.0 mm/hr 0.00 in0.0 mm
11:52 PM 56.7°F13.7°C 46.3°F7.9°C 68% 5.2 mph NE8.4 kmh NE 6.0 mph9.7 kmh 26.99 in914.0 mb 0.00 in0.0 mm 0.00 in/hr0.0 mm/hr 0.00 in0.0 mm
11:54 PM 56.7°F13.7°C 46.3°F7.9°C 68% 3.9 mph NNE6.3 kmh NNE 9.0 mph14.5 kmh 26.99 in914.0 mb 0.00 in0.0 mm 0.00 in/hr0.0 mm/hr 0.00 in0.0 mm
11:56 PM 56.7°F13.7°C 46.7°F8.2°C 69% 6.5 mph N10.5 kmh N 7.0 mph11.3 kmh 26.99 in914.0 mb 0.00 in0.0 mm 0.00 in/hr0.0 mm/hr 0.00 in0.0 mm
11:58 PM 56.7°F13.7°C 46.7°F8.2°C 69% 3.9 mph NE6.3 kmh NE 6.0 mph9.7 kmh 26.99 in914.0 mb 0.00 in0.0 mm 0.00 in/hr0.0 mm/hr 0.00 in0.0 mm